Observation data for Happy on 08/20/2019      Previous  Date       Current Mesonet Observations  Soil Data  Daily Summary Page  Observations in Plain Language
KHA2 200500Z 16010KT 28/14 A301 RMK A01 T02820140  RH  042%=      5-min Rain = 0
KHA2 200501Z 16010KT 28/14 A301 RMK A01 T02830140  RH  042%=      5-min Rain = 0
KHA2 200502Z 17011KT 28/14 A301 RMK A01 T02830140  RH  042%=      5-min Rain = 0
KHA2 200503Z 16011KT 28/14 A301 RMK A01 T02830141  RH  042%=      5-min Rain = 0
KHA2 200504Z 16011KT 28/14 A301 RMK A01 T02840141  RH  042%=      5-min Rain = 0
KHA2 200505Z 16011KT 28/14 A301 RMK A01 T02840142  RH  042%=      5-min Rain = 0
KHA2 200506Z 16011KT 28/14 A301 RMK A01 T02840142  RH  042%=      5-min Rain = 0
KHA2 200507Z 17012KT 28/14 A301 RMK A01 T02840142  RH  042%=      5-min Rain = 0
KHA2 200508Z 16012KT 29/14 A301 RMK A01 T02850142  RH  042%=      5-min Rain = 0
KHA2 200509Z 17012KT 29/14 A301 RMK A01 T02850143  RH  042%=      5-min Rain = 0
KHA2 200510Z 16011KT 29/14 A301 RMK A01 T02860143  RH  042%=      5-min Rain = 0
KHA2 200511Z 17012KT 29/14 A301 RMK A01 T02860143  RH  042%=      5-min Rain = 0
KHA2 200512Z 16011KT 29/14 A301 RMK A01 T02850143  RH  042%=      5-min Rain = 0
KHA2 200513Z 16012KT 29/14 A301 RMK A01 T02850143  RH  042%=      5-min Rain = 0
KHA2 200514Z 16012KT 29/14 A301 RMK A01 T02850143  RH  042%=      5-min Rain = 0
KHA2 200515Z 16013KT 29/14 A301 RMK A01 T02850143  RH  042%=      5-min Rain = 0
KHA2 200516Z 16012KT 29/14 A301 RMK A01 T02860144  RH  042%=      5-min Rain = 0
KHA2 200517Z 16012G18KT 29/14 A301 RMK A01 T02860144  RH  042%=      5-min Rain = 0
KHA2 200518Z 16012KT 29/15 A301 RMK A01 T02860145  RH  042%=      5-min Rain = 0
KHA2 200519Z 16012G17KT 29/14 A301 RMK A01 T02860144  RH  042%=      5-min Rain = 0
KHA2 200520Z 16012KT 29/14 A301 RMK A01 T02860144  RH  042%=      5-min Rain = 0
KHA2 200521Z 16012KT 29/15 A301 RMK A01 T02860145  RH  042%=      5-min Rain = 0
KHA2 200522Z 16010KT 29/15 A301 RMK A01 T02860145  RH  042%=      5-min Rain = 0
KHA2 200523Z 16012KT 29/15 A301 RMK A01 T02860145  RH  042%=      5-min Rain = 0
KHA2 200524Z 16012KT 29/15 A301 RMK A01 T02860145  RH  042%=      5-min Rain = 0
KHA2 200525Z 16011KT 29/15 A301 RMK A01 T02850145  RH  042%=      5-min Rain = 0
KHA2 200526Z 16011KT 29/15 A301 RMK A01 T02860145  RH  042%=      5-min Rain = 0
KHA2 200527Z 16011KT 29/15 A301 RMK A01 T02850145  RH  042%=      5-min Rain = 0
KHA2 200528Z 16012KT 29/15 A301 RMK A01 T02850145  RH  042%=      5-min Rain = 0
KHA2 200529Z 15010KT 29/15 A301 RMK A01 T02850145  RH  042%=      5-min Rain = 0
KHA2 200530Z 15010KT 29/15 A301 RMK A01 T02850145  RH  042%=      5-min Rain = 0
KHA2 200531Z 15010KT 28/15 A301 RMK A01 T02840145  RH  043%=      5-min Rain = 0
KHA2 200532Z 15011KT 28/15 A301 RMK A01 T02840145  RH  043%=      5-min Rain = 0
KHA2 200533Z 15011KT 28/15 A3011 RMK A01 T02830145  RH  043%=      5-min Rain = 0
KHA2 200534Z 15010KT 28/15 A3011 RMK A01 T02830145  RH  043%=      5-min Rain = 0
KHA2 200535Z 15009KT 28/15 A3011 RMK A01 T02830145  RH  043%=      5-min Rain = 0
KHA2 200536Z 15010KT 28/15 A3011 RMK A01 T02830145  RH  043%=      5-min Rain = 0
KHA2 200537Z 15010KT 28/15 A3011 RMK A01 T02820145  RH  043%=      5-min Rain = 0
KHA2 200538Z 15009KT 28/15 A3011 RMK A01 T02820145  RH  043%=      5-min Rain = 0
KHA2 200539Z 15009KT 28/15 A3011 RMK A01 T02810146  RH  043%=      5-min Rain = 0
KHA2 200540Z 15010KT 28/15 A3011 RMK A01 T02810145  RH  044%=      5-min Rain = 0
KHA2 200541Z 15009KT 28/15 A3011 RMK A01 T02800146  RH  044%=      5-min Rain = 0
KHA2 200542Z 15010KT 28/15 A3011 RMK A01 T02800146  RH  044%=      5-min Rain = 0
KHA2 200543Z 15009KT 28/15 A3011 RMK A01 T02800146  RH  044%=      5-min Rain = 0
KHA2 200544Z 16010KT 28/15 A3011 RMK A01 T02800146  RH  044%=      5-min Rain = 0
KHA2 200545Z 16009KT 28/15 A3011 RMK A01 T02800146  RH  044%=      5-min Rain = 0
KHA2 200546Z 16009KT 28/15 A301 RMK A01 T02800146  RH  044%=      5-min Rain = 0
KHA2 200547Z 16009KT 28/15 A301 RMK A01 T02800146  RH  044%=      5-min Rain = 0
KHA2 200548Z 16009KT 28/15 A301 RMK A01 T02790146  RH  044%=      5-min Rain = 0
KHA2 200549Z 16008KT 28/15 A301 RMK A01 T02800147  RH  044%=      5-min Rain = 0
KHA2 200550Z 16010KT 28/15 A301 RMK A01 T02790146  RH  044%=      5-min Rain = 0
KHA2 200551Z 16009KT 28/15 A301 RMK A01 T02790146  RH  044%=      5-min Rain = 0
KHA2 200552Z 16009KT 28/15 A301 RMK A01 T02790146  RH  044%=      5-min Rain = 0
KHA2 200553Z 17009KT 28/15 A301 RMK A01 T02790147  RH  044%=      5-min Rain = 0
KHA2 200554Z 17010KT 28/15 A301 RMK A01 T02790147  RH  044%=      5-min Rain = 0
KHA2 200555Z 17009KT 28/15 A3011 RMK A01 T02790147  RH  044%=      5-min Rain = 0
KHA2 200556Z 17009KT 28/15 A3011 RMK A01 T02790146  RH  044%=      5-min Rain = 0
KHA2 200557Z 17009KT 28/15 A3011 RMK A01 T02780146  RH  044%=      5-min Rain = 0
KHA2 200558Z 17009KT 28/15 A3011 RMK A01 T02780146  RH  044%=      5-min Rain = 0
KHA2 200559Z 17009KT 28/15 A3011 RMK A01 T02780146  RH  045%=      5-min Rain = 0
KHA2 200600Z 17008KT 28/15 A3011 RMK A01 T02780147  RH  045%=      5-min Rain = 0
KHA2 200601Z 17010KT 28/15 A3011 RMK A01 T02780146  RH  045%=      5-min Rain = 0
KHA2 200602Z 17009KT 28/15 A3011 RMK A01 T02780147  RH  045%=      5-min Rain = 0
KHA2 200603Z 18009KT 28/15 A3011 RMK A01 T02780147  RH  045%=      5-min Rain = 0
KHA2 200604Z 18008KT 28/15 A3011 RMK A01 T02780147  RH  045%=      5-min Rain = 0
KHA2 200605Z 18010KT 28/15 A3011 RMK A01 T02780147  RH  045%=      5-min Rain = 0
KHA2 200606Z 18010KT 28/15 A3011 RMK A01 T02770147  RH  045%=      5-min Rain = 0
KHA2 200607Z 18010KT 28/15 A3011 RMK A01 T02780148  RH  045%=      5-min Rain = 0
KHA2 200608Z 19009KT 28/15 A3011 RMK A01 T02780148  RH  045%=      5-min Rain = 0
KHA2 200609Z 19010KT 28/15 A3011 RMK A01 T02780147  RH  045%=      5-min Rain = 0
KHA2 200610Z 19009KT 28/15 A3011 RMK A01 T02780147  RH  045%=      5-min Rain = 0
KHA2 200611Z 19009KT 28/15 A3011 RMK A01 T02780147  RH  045%=      5-min Rain = 0
KHA2 200612Z 19010KT 28/15 A3011 RMK A01 T02770147  RH  045%=      5-min Rain = 0
KHA2 200613Z 19010KT 28/15 A3011 RMK A01 T02770147  RH  045%=      5-min Rain = 0
KHA2 200614Z 19009KT 28/15 A3011 RMK A01 T02770147  RH  045%=      5-min Rain = 0
KHA2 200615Z 19009KT 28/15 A3011 RMK A01 T02770147  RH  045%=      5-min Rain = 0
KHA2 200616Z 19009KT 28/15 A3011 RMK A01 T02770147  RH  045%=      5-min Rain = 0
KHA2 200617Z 19009KT 28/15 A3011 RMK A01 T02770147  RH  045%=      5-min Rain = 0
KHA2 200618Z 19008KT 28/15 A3011 RMK A01 T02760146  RH  045%=      5-min Rain = 0
KHA2 200619Z 19009KT 28/15 A3011 RMK A01 T02760146  RH  045%=      5-min Rain = 0
KHA2 200620Z 19009KT 28/15 A3011 RMK A01 T02760147  RH  045%=      5-min Rain = 0
KHA2 200621Z 19008KT 28/15 A3011 RMK A01 T02750147  RH  045%=      5-min Rain = 0
KHA2 200622Z 19008KT 28/15 A3011 RMK A01 T02750146  RH  045%=      5-min Rain = 0
KHA2 200623Z 19008KT 27/15 A3011 RMK A01 T02740146  RH  046%=      5-min Rain = 0
KHA2 200624Z 18008KT 27/15 A3011 RMK A01 T02730146  RH  046%=      5-min Rain = 0
KHA2 200625Z 19008KT 27/15 A3011 RMK A01 T02730146  RH  046%=      5-min Rain = 0
KHA2 200626Z 19007KT 27/15 A3011 RMK A01 T02720146  RH  046%=      5-min Rain = 0
KHA2 200627Z 19007KT 27/15 A3011 RMK A01 T02720146  RH  046%=      5-min Rain = 0
KHA2 200628Z 19007KT 27/15 A3011 RMK A01 T02710145  RH  046%=      5-min Rain = 0
KHA2 200629Z 19007KT 27/15 A3011 RMK A01 T02700145  RH  046%=      5-min Rain = 0
KHA2 200630Z 19007KT 27/15 A3011 RMK A01 T02700146  RH  046%=      5-min Rain = 0
KHA2 200631Z 19007KT 27/15 A3011 RMK A01 T02690145  RH  047%=      5-min Rain = 0
KHA2 200632Z 19007KT 27/15 A3011 RMK A01 T02690146  RH  047%=      5-min Rain = 0
KHA2 200633Z 19007KT 27/15 A3011 RMK A01 T02680145  RH  047%=      5-min Rain = 0
KHA2 200634Z 19007KT 27/15 A3011 RMK A01 T02680146  RH  047%=      5-min Rain = 0
KHA2 200635Z 19007KT 27/15 A3011 RMK A01 T02680146  RH  047%=      5-min Rain = 0
KHA2 200636Z 18006KT 27/15 A3011 RMK A01 T02670145  RH  047%=      5-min Rain = 0
KHA2 200637Z 18007KT 27/15 A3011 RMK A01 T02670145  RH  047%=      5-min Rain = 0
KHA2 200638Z 18006KT 27/15 A3011 RMK A01 T02660145  RH  047%=      5-min Rain = 0
KHA2 200639Z 18006KT 27/15 A3011 RMK A01 T02650145  RH  048%=      5-min Rain = 0
KHA2 200640Z 18007KT 26/15 A3011 RMK A01 T02640145  RH  048%=      5-min Rain = 0
KHA2 200641Z 18006KT 26/15 A3011 RMK A01 T02640145  RH  048%=      5-min Rain = 0
KHA2 200642Z 18007KT 26/15 A3011 RMK A01 T02640146  RH  048%=      5-min Rain = 0
KHA2 200643Z 18007KT 26/15 A3011 RMK A01 T02640146  RH  048%=      5-min Rain = 0
KHA2 200644Z 18006KT 26/15 A3011 RMK A01 T02640145  RH  048%=      5-min Rain = 0
KHA2 200645Z 18006KT 26/15 A3011 RMK A01 T02630145  RH  048%=      5-min Rain = 0
KHA2 200646Z 18006KT 26/15 A3011 RMK A01 T02630145  RH  048%=      5-min Rain = 0
KHA2 200647Z 18006KT 26/15 A3011 RMK A01 T02620145  RH  048%=      5-min Rain = 0
KHA2 200648Z 18006KT 26/15 A3011 RMK A01 T02620145  RH  048%=      5-min Rain = 0
KHA2 200649Z 18006KT 26/15 A3011 RMK A01 T02620145  RH  048%=      5-min Rain = 0
KHA2 200650Z 18007KT 26/15 A3011 RMK A01 T02620145  RH  049%=      5-min Rain = 0
KHA2 200651Z 19007KT 26/15 A3011 RMK A01 T02620145  RH  048%=      5-min Rain = 0
KHA2 200652Z 19007KT 26/15 A3011 RMK A01 T02620145  RH  048%=      5-min Rain = 0
KHA2 200653Z 19007KT 26/15 A3011 RMK A01 T02620145  RH  048%=      5-min Rain = 0
KHA2 200654Z 19007KT 26/15 A3011 RMK A01 T02620145  RH  048%=      5-min Rain = 0
KHA2 200655Z 19007KT 26/14 A3011 RMK A01 T02620144  RH  048%=      5-min Rain = 0
KHA2 200656Z 20007KT 26/14 A3011 RMK A01 T02620144  RH  048%=      5-min Rain = 0
KHA2 200657Z 19007KT 26/14 A3011 RMK A01 T02620144  RH  048%=      5-min Rain = 0
KHA2 200658Z 20007KT 26/15 A3011 RMK A01 T02630145  RH  048%=      5-min Rain = 0
KHA2 200659Z 20008KT 26/15 A3011 RMK A01 T02630145  RH  048%=      5-min Rain = 0
KHA2 200700Z 20008KT 26/15 A3011 RMK A01 T02640145  RH  048%=      5-min Rain = 0
KHA2 200701Z 19009KT 27/15 A3011 RMK A01 T02650146  RH  048%=      5-min Rain = 0
KHA2 200702Z 20008KT 27/15 A3011 RMK A01 T02660146  RH  048%=      5-min Rain = 0
KHA2 200703Z 19008KT 27/15 A3011 RMK A01 T02660145  RH  047%=      5-min Rain = 0
KHA2 200704Z 19008KT 27/15 A3011 RMK A01 T02660146  RH  048%=      5-min Rain = 0
KHA2 200705Z 19009KT 27/15 A3011 RMK A01 T02660146  RH  048%=      5-min Rain = 0
KHA2 200706Z 19009KT 27/15 A3011 RMK A01 T02670146  RH  048%=      5-min Rain = 0
KHA2 200707Z 19009KT 27/15 A3011 RMK A01 T02670147  RH  048%=      5-min Rain = 0
KHA2 200708Z 19008KT 27/15 A3011 RMK A01 T02680147  RH  047%=      5-min Rain = 0
KHA2 200709Z 19009KT 27/15 A3011 RMK A01 T02680147  RH  047%=      5-min Rain = 0
KHA2 200710Z 19009KT 27/15 A3011 RMK A01 T02680147  RH  047%=      5-min Rain = 0
KHA2 200711Z 19010KT 27/15 A3011 RMK A01 T02680147  RH  047%=      5-min Rain = 0
KHA2 200712Z 19009KT 27/15 A301 RMK A01 T02690147  RH  047%=      5-min Rain = 0
KHA2 200713Z 19009KT 27/15 A3011 RMK A01 T02690148  RH  047%=      5-min Rain = 0
KHA2 200714Z 19009KT 27/15 A3011 RMK A01 T02690148  RH  047%=      5-min Rain = 0
KHA2 200715Z 19009KT 27/15 A3011 RMK A01 T02690148  RH  047%=      5-min Rain = 0
KHA2 200716Z 19009KT 27/15 A3011 RMK A01 T02690148  RH  047%=      5-min Rain = 0
KHA2 200717Z 19009KT 27/15 A3011 RMK A01 T02690148  RH  048%=      5-min Rain = 0
KHA2 200718Z 18010KT 27/15 A3011 RMK A01 T02690148  RH  048%=      5-min Rain = 0
KHA2 200719Z 19010KT 27/15 A3011 RMK A01 T02680148  RH  048%=      5-min Rain = 0
KHA2 200720Z 19010KT 27/15 A3011 RMK A01 T02680148  RH  048%=      5-min Rain = 0
KHA2 200721Z 19009KT 27/15 A3011 RMK A01 T02680148  RH  048%=      5-min Rain = 0
KHA2 200722Z 19009KT 27/15 A3011 RMK A01 T02680148  RH  048%=      5-min Rain = 0
KHA2 200723Z 18010KT 27/15 A3011 RMK A01 T02680148  RH  048%=      5-min Rain = 0
KHA2 200724Z 19010KT 27/15 A3011 RMK A01 T02690149  RH  048%=      5-min Rain = 0
KHA2 200725Z 19009KT 27/15 A3011 RMK A01 T02680148  RH  048%=      5-min Rain = 0
KHA2 200726Z 19009KT 27/15 A3011 RMK A01 T02680148  RH  048%=      5-min Rain = 0
KHA2 200727Z 19010KT 27/15 A3011 RMK A01 T02680148  RH  048%=      5-min Rain = 0
KHA2 200728Z 19009KT 27/15 A3011 RMK A01 T02680149  RH  048%=      5-min Rain = 0
KHA2 200729Z 18009KT 27/15 A3011 RMK A01 T02680149  RH  048%=      5-min Rain = 0
KHA2 200730Z 19009KT 27/15 A3011 RMK A01 T02680149  RH  048%=      5-min Rain = 0
KHA2 200731Z 19009KT 27/15 A3011 RMK A01 T02680149  RH  048%=      5-min Rain = 0
KHA2 200732Z 19009KT 27/15 A3011 RMK A01 T02680149  RH  048%=      5-min Rain = 0
KHA2 200733Z 19008KT 27/15 A3011 RMK A01 T02670149  RH  048%=      5-min Rain = 0
KHA2 200734Z 19009KT 27/15 A3011 RMK A01 T02660148  RH  048%=      5-min Rain = 0
KHA2 200735Z 18009KT 27/15 A3011 RMK A01 T02660149  RH  048%=      5-min Rain = 0
KHA2 200736Z 19008KT 27/15 A3011 RMK A01 T02660149  RH  048%=      5-min Rain = 0
KHA2 200737Z 18009KT 27/15 A3011 RMK A01 T02660149  RH  048%=      5-min Rain = 0
KHA2 200738Z 19008KT 27/15 A3011 RMK A01 T02660149  RH  049%=      5-min Rain = 0
KHA2 200739Z 19008KT 27/15 A3011 RMK A01 T02650148  RH  049%=      5-min Rain = 0
KHA2 200740Z 19009KT 26/15 A3011 RMK A01 T02640148  RH  049%=      5-min Rain = 0
KHA2 200741Z 19008KT 26/15 A3011 RMK A01 T02640148  RH  049%=      5-min Rain = 0
KHA2 200742Z 19008KT 26/15 A3011 RMK A01 T02640148  RH  049%=      5-min Rain = 0
KHA2 200743Z 18008KT 26/15 A3011 RMK A01 T02630148  RH  049%=      5-min Rain = 0
KHA2 200744Z 19009KT 26/15 A3011 RMK A01 T02620148  RH  049%=      5-min Rain = 0
KHA2 200745Z 18008KT 26/15 A3011 RMK A01 T02620148  RH  049%=      5-min Rain = 0
KHA2 200746Z 18008KT 26/15 A3011 RMK A01 T02620148  RH  049%=      5-min Rain = 0
KHA2 200747Z 19008KT 26/15 A3011 RMK A01 T02620148  RH  049%=      5-min Rain = 0
KHA2 200748Z 18008KT 26/15 A3011 RMK A01 T02620148  RH  050%=      5-min Rain = 0
KHA2 200749Z 18009KT 26/15 A3011 RMK A01 T02610148  RH  050%=      5-min Rain = 0
KHA2 200750Z 19008KT 26/15 A3011 RMK A01 T02620148  RH  050%=      5-min Rain = 0
KHA2 200751Z 19009KT 26/15 A3011 RMK A01 T02620148  RH  050%=      5-min Rain = 0
KHA2 200752Z 19009KT 26/15 A3011 RMK A01 T02620148  RH  049%=      5-min Rain = 0
KHA2 200753Z 18010KT 26/15 A3011 RMK A01 T02620148  RH  049%=      5-min Rain = 0
KHA2 200754Z 19009KT 26/15 A3011 RMK A01 T02620148  RH  049%=      5-min Rain = 0
KHA2 200755Z 19009KT 26/15 A3011 RMK A01 T02630149  RH  049%=      5-min Rain = 0
KHA2 200756Z 18009KT 26/15 A3011 RMK A01 T02630149  RH  049%=      5-min Rain = 0
KHA2 200757Z 19008KT 26/15 A3011 RMK A01 T02620148  RH  049%=      5-min Rain = 0
KHA2 200758Z 19009KT 26/15 A3011 RMK A01 T02620148  RH  050%=      5-min Rain = 0
KHA2 200759Z 19010KT 26/15 A3011 RMK A01 T02620148  RH  050%=      5-min Rain = 0
KHA2 200800Z 19009KT 26/15 A3011 RMK A01 T02630149  RH  049%=      5-min Rain = 0
KHA2 200801Z 18010KT 26/15 A3011 RMK A01 T02630149  RH  049%=      5-min Rain = 0
KHA2 200802Z 19011KT 27/15 A3011 RMK A01 T02650150  RH  049%=      5-min Rain = 0
KHA2 200803Z 19010KT 27/15 A3011 RMK A01 T02650149  RH  049%=      5-min Rain = 0
KHA2 200804Z 19011KT 27/15 A3011 RMK A01 T02650149  RH  049%=      5-min Rain = 0
KHA2 200805Z 19011KT 27/15 A3011 RMK A01 T02650149  RH  049%=      5-min Rain = 0
KHA2 200806Z 19010KT 27/15 A3011 RMK A01 T02650149  RH  049%=      5-min Rain = 0
KHA2 200807Z 19010KT 27/15 A3011 RMK A01 T02660149  RH  049%=      5-min Rain = 0
KHA2 200808Z 20011KT 27/15 A3011 RMK A01 T02660149  RH  049%=      5-min Rain = 0
KHA2 200809Z 20011KT 27/15 A3011 RMK A01 T02660150  RH  049%=      5-min Rain = 0
KHA2 200810Z 19010KT 27/15 A3011 RMK A01 T02670150  RH  049%=      5-min Rain = 0
KHA2 200811Z 20011KT 27/15 A3011 RMK A01 T02670149  RH  049%=      5-min Rain = 0
KHA2 200812Z 20010KT 27/15 A3011 RMK A01 T02670150  RH  049%=      5-min Rain = 0
KHA2 200813Z 20011KT 27/15 A3011 RMK A01 T02670150  RH  049%=      5-min Rain = 0
KHA2 200814Z 20010KT 27/15 A3011 RMK A01 T02670150  RH  049%=      5-min Rain = 0
KHA2 200815Z 20010KT 27/15 A3011 RMK A01 T02660150  RH  049%=      5-min Rain = 0
KHA2 200816Z 20011KT 27/15 A3011 RMK A01 T02660150  RH  049%=      5-min Rain = 0
KHA2 200817Z 20010KT 27/15 A3011 RMK A01 T02660150  RH  049%=      5-min Rain = 0
KHA2 200818Z 20011KT 27/15 A3011 RMK A01 T02650150  RH  049%=      5-min Rain = 0
KHA2 200819Z 20010KT 27/15 A3011 RMK A01 T02650150  RH  049%=      5-min Rain = 0
KHA2 200820Z 20010KT 27/15 A3011 RMK A01 T02650151  RH  049%=      5-min Rain = 0
KHA2 200821Z 20010KT 27/15 A3011 RMK A01 T02660151  RH  049%=      5-min Rain = 0
KHA2 200822Z 20010KT 27/15 A3011 RMK A01 T02650151  RH  049%=      5-min Rain = 0
KHA2 200823Z 20011KT 27/15 A3011 RMK A01 T02660151  RH  049%=      5-min Rain = 0
KHA2 200824Z 20011KT 27/15 A3011 RMK A01 T02660151  RH  049%=      5-min Rain = 0
KHA2 200825Z 20010KT 27/15 A3011 RMK A01 T02650151  RH  049%=      5-min Rain = 0
KHA2 200826Z 20011KT 27/15 A3011 RMK A01 T02650151  RH  049%=      5-min Rain = 0
KHA2 200827Z 20010KT 27/15 A3011 RMK A01 T02660151  RH  049%=      5-min Rain = 0
KHA2 200828Z 20010KT 27/15 A3011 RMK A01 T02660151  RH  049%=      5-min Rain = 0
KHA2 200829Z 20010KT 27/15 A3011 RMK A01 T02660151  RH  049%=      5-min Rain = 0
KHA2 200830Z 20010KT 27/15 A3011 RMK A01 T02660151  RH  049%=      5-min Rain = 0
KHA2 200831Z 20010KT 27/15 A3011 RMK A01 T02660151  RH  049%=      5-min Rain = 0
KHA2 200832Z 20011KT 27/15 A3011 RMK A01 T02650151  RH  049%=      5-min Rain = 0
KHA2 200833Z 20010KT 27/15 A3011 RMK A01 T02650150  RH  049%=      5-min Rain = 0
KHA2 200834Z 20011KT 27/15 A3011 RMK A01 T02650151  RH  049%=      5-min Rain = 0
KHA2 200835Z 20011KT 27/15 A3011 RMK A01 T02650151  RH  050%=      5-min Rain = 0
KHA2 200836Z 20010KT 27/15 A3011 RMK A01 T02650151  RH  050%=      5-min Rain = 0
KHA2 200837Z 20011KT 27/15 A3011 RMK A01 T02650151  RH  050%=      5-min Rain = 0
KHA2 200838Z 20012KT 27/15 A3011 RMK A01 T02650151  RH  050%=      5-min Rain = 0
KHA2 200839Z 20011KT 27/15 A3011 RMK A01 T02650152  RH  050%=      5-min Rain = 0
KHA2 200840Z 20011KT 27/15 A3011 RMK A01 T02650151  RH  050%=      5-min Rain = 0
KHA2 200841Z 19013KT 27/15 A3011 RMK A01 T02650151  RH  050%=      5-min Rain = 0
KHA2 200842Z 20014KT 27/15 A3011 RMK A01 T02650151  RH  050%=      5-min Rain = 0
KHA2 200843Z 19012KT 27/15 A3011 RMK A01 T02660152  RH  049%=      5-min Rain = 0
KHA2 200844Z 20012KT 27/15 A3011 RMK A01 T02670152  RH  049%=      5-min Rain = 0
KHA2 200845Z 20011KT 27/15 A3011 RMK A01 T02670152  RH  049%=      5-min Rain = 0
KHA2 200846Z 20012KT 27/15 A3011 RMK A01 T02670152  RH  049%=      5-min Rain = 0
KHA2 200847Z 20011KT 27/15 A3011 RMK A01 T02670152  RH  049%=      5-min Rain = 0
KHA2 200848Z 20011KT 27/15 A3011 RMK A01 T02660151  RH  049%=      5-min Rain = 0
KHA2 200849Z 20012KT 27/15 A3011 RMK A01 T02660151  RH  049%=      5-min Rain = 0
KHA2 200850Z 20011G16KT 27/15 A3011 RMK A01 T02660151  RH  049%=      5-min Rain = 0
KHA2 200851Z 20012KT 27/15 A301 RMK A01 T02660151  RH  049%=      5-min Rain = 0
KHA2 200852Z 20010KT 27/15 A3011 RMK A01 T02660151  RH  049%=      5-min Rain = 0
KHA2 200853Z 20011KT 27/15 A301 RMK A01 T02660151  RH  049%=      5-min Rain = 0
KHA2 200854Z 20011KT 27/15 A301 RMK A01 T02660152  RH  049%=      5-min Rain = 0
KHA2 200855Z 20010KT 27/15 A301 RMK A01 T02660151  RH  049%=      5-min Rain = 0
KHA2 200856Z 20010KT 27/15 A301 RMK A01 T02660151  RH  049%=      5-min Rain = 0
KHA2 200857Z 20012KT 27/15 A301 RMK A01 T02650151  RH  050%=      5-min Rain = 0
KHA2 200858Z 20012KT 27/15 A301 RMK A01 T02650152  RH  050%=      5-min Rain = 0
KHA2 200859Z 20013KT 27/15 A301 RMK A01 T02650152  RH  050%=      5-min Rain = 0
KHA2 200900Z 20013KT 27/15 A3011 RMK A01 T02650152  RH  050%=      5-min Rain = 0
KHA2 200901Z 20012KT 27/15 A3011 RMK A01 T02650151  RH  050%=      5-min Rain = 0
KHA2 200902Z 20013KT 27/15 A3011 RMK A01 T02650151  RH  050%=      5-min Rain = 0
KHA2 200903Z 20012KT 27/15 A3011 RMK A01 T02660152  RH  050%=      5-min Rain = 0
KHA2 200904Z 20013KT 27/15 A3011 RMK A01 T02660152  RH  050%=      5-min Rain = 0
KHA2 200905Z 20010KT 27/15 A3011 RMK A01 T02660152  RH  050%=      5-min Rain = 0
KHA2 200906Z 20011KT 27/15 A3011 RMK A01 T02660152  RH  050%=      5-min Rain = 0
KHA2 200907Z 20011KT 27/15 A3011 RMK A01 T02650152  RH  050%=      5-min Rain = 0
KHA2 200908Z 20012KT 27/15 A3011 RMK A01 T02650152  RH  050%=      5-min Rain = 0
KHA2 200909Z 20011KT 27/15 A3011 RMK A01 T02650152  RH  050%=      5-min Rain = 0
KHA2 200910Z 20011KT 26/15 A3011 RMK A01 T02640151  RH  050%=      5-min Rain = 0
KHA2 200911Z 20011KT 26/15 A3011 RMK A01 T02640151  RH  050%=      5-min Rain = 0
KHA2 200912Z 21012KT 26/15 A3011 RMK A01 T02640151  RH  050%=      5-min Rain = 0
KHA2 200913Z 21012KT 26/15 A3011 RMK A01 T02640151  RH  050%=      5-min Rain = 0
KHA2 200914Z 21010KT 26/15 A3011 RMK A01 T02630151  RH  050%=      5-min Rain = 0
KHA2 200915Z 20011KT 26/15 A3011 RMK A01 T02630151  RH  050%=      5-min Rain = 0
KHA2 200916Z 21012KT 26/15 A3011 RMK A01 T02630151  RH  050%=      5-min Rain = 0
KHA2 200917Z 20012KT 26/15 A3011 RMK A01 T02630152  RH  050%=      5-min Rain = 0
KHA2 200918Z 20012KT 26/15 A3011 RMK A01 T02630152  RH  050%=      5-min Rain = 0
KHA2 200919Z 20011KT 26/15 A3011 RMK A01 T02630152  RH  050%=      5-min Rain = 0
KHA2 200920Z 20011KT 26/15 A3011 RMK A01 T02630152  RH  050%=      5-min Rain = 0
KHA2 200921Z 20011KT 26/15 A3011 RMK A01 T02620152  RH  050%=      5-min Rain = 0
KHA2 200922Z 20010KT 26/15 A3011 RMK A01 T02620152  RH  051%=      5-min Rain = 0
KHA2 200923Z 20010KT 26/15 A3011 RMK A01 T02620152  RH  051%=      5-min Rain = 0
KHA2 200924Z 20009KT 26/15 A3011 RMK A01 T02620152  RH  051%=      5-min Rain = 0
KHA2 200925Z 21009KT 26/15 A3011 RMK A01 T02610152  RH  051%=      5-min Rain = 0
KHA2 200926Z 21009KT 26/15 A3011 RMK A01 T02610152  RH  051%=      5-min Rain = 0
KHA2 200927Z 21009KT 26/15 A3011 RMK A01 T02610152  RH  051%=      5-min Rain = 0
KHA2 200928Z 21010KT 26/15 A3011 RMK A01 T02610152  RH  051%=      5-min Rain = 0
KHA2 200929Z 21010KT 26/15 A3011 RMK A01 T02600152  RH  051%=      5-min Rain = 0
KHA2 200930Z 21009KT 26/15 A3011 RMK A01 T02600152  RH  051%=      5-min Rain = 0
KHA2 200931Z 21010KT 26/15 A3011 RMK A01 T02600152  RH  051%=      5-min Rain = 0
KHA2 200932Z 21010KT 26/15 A3011 RMK A01 T02600152  RH  051%=      5-min Rain = 0
KHA2 200933Z 20009KT 26/15 A3011 RMK A01 T02600152  RH  051%=      5-min Rain = 0
KHA2 200934Z 20011KT 26/15 A3011 RMK A01 T02590152  RH  051%=      5-min Rain = 0
KHA2 200935Z 20010KT 26/15 A3011 RMK A01 T02600152  RH  051%=      5-min Rain = 0
KHA2 200936Z 20009KT 26/15 A3011 RMK A01 T02600152  RH  052%=      5-min Rain = 0
KHA2 200937Z 20009KT 26/15 A3011 RMK A01 T02590152  RH  052%=      5-min Rain = 0
KHA2 200938Z 20009KT 26/15 A3011 RMK A01 T02590152  RH  052%=      5-min Rain = 0
KHA2 200939Z 20009KT 26/15 A3011 RMK A01 T02580152  RH  052%=      5-min Rain = 0
KHA2 200940Z 20010KT 26/15 A3011 RMK A01 T02580152  RH  052%=      5-min Rain = 0
KHA2 200941Z 20009KT 26/15 A3011 RMK A01 T02580152  RH  052%=      5-min Rain = 0
KHA2 200942Z 20009KT 26/15 A3011 RMK A01 T02580152  RH  052%=      5-min Rain = 0
KHA2 200943Z 20008KT 26/15 A3011 RMK A01 T02580151  RH  052%=      5-min Rain = 0
KHA2 200944Z 21009KT 26/15 A3011 RMK A01 T02570152  RH  052%=      5-min Rain = 0
KHA2 200945Z 21008KT 26/15 A3011 RMK A01 T02570151  RH  052%=      5-min Rain = 0
KHA2 200946Z 21007KT 26/15 A3011 RMK A01 T02570151  RH  052%=      5-min Rain = 0
KHA2 200947Z 21008KT 26/15 A3011 RMK A01 T02560151  RH  052%=      5-min Rain = 0
KHA2 200948Z 21008KT 26/15 A3011 RMK A01 T02560151  RH  052%=      5-min Rain = 0
KHA2 200949Z 21008KT 26/15 A3011 RMK A01 T02560151  RH  052%=      5-min Rain = 0
KHA2 200950Z 20008KT 26/15 A3011 RMK A01 T02560151  RH  052%=      5-min Rain = 0
KHA2 200951Z 20008KT 26/15 A3011 RMK A01 T02560151  RH  052%=      5-min Rain = 0
KHA2 200952Z 20009KT 26/15 A3011 RMK A01 T02560151  RH  052%=      5-min Rain = 0
KHA2 200953Z 20008KT 26/15 A3011 RMK A01 T02560151  RH  052%=      5-min Rain = 0
KHA2 200954Z 20009KT 26/15 A3011 RMK A01 T02550151  RH  052%=      5-min Rain = 0
KHA2 200955Z 20008KT 26/15 A3011 RMK A01 T02550151  RH  052%=      5-min Rain = 0
KHA2 200956Z 20008KT 26/15 A3011 RMK A01 T02550151  RH  052%=      5-min Rain = 0
KHA2 200957Z 20009KT 26/15 A3011 RMK A01 T02550151  RH  053%=      5-min Rain = 0
KHA2 200958Z 20009KT 26/15 A3011 RMK A01 T02560152  RH  053%=      5-min Rain = 0
KHA2 200959Z 20008KT 26/15 A3011 RMK A01 T02550151  RH  053%=      5-min Rain = 0
KHA2 201000Z 20008KT 26/15 A3011 RMK A01 T02550151  RH  053%=      5-min Rain = 0
KHA2 201001Z 20007KT 26/15 A3011 RMK A01 T02550151  RH  053%=      5-min Rain = 0
KHA2 201002Z 20008KT 26/15 A3011 RMK A01 T02550151  RH  053%=      5-min Rain = 0
KHA2 201003Z 20008KT 26/15 A3011 RMK A01 T02560152  RH  053%=      5-min Rain = 0
KHA2 201004Z 20008KT 26/15 A3011 RMK A01 T02550152  RH  053%=      5-min Rain = 0
KHA2 201005Z 20008KT 26/15 A3011 RMK A01 T02550151  RH  053%=      5-min Rain = 0
KHA2 201006Z 21008KT 26/15 A3011 RMK A01 T02550152  RH  053%=      5-min Rain = 0
KHA2 201007Z 20007KT 26/15 A3012 RMK A01 T02550152  RH  053%=      5-min Rain = 0
KHA2 201008Z 20007KT 26/15 A3012 RMK A01 T02550151  RH  053%=      5-min Rain = 0
KHA2 201009Z 20007KT 25/15 A3012 RMK A01 T02540151  RH  053%=      5-min Rain = 0
KHA2 201010Z 20007KT 25/15 A3012 RMK A01 T02540151  RH  053%=      5-min Rain = 0
KHA2 201011Z 20007KT 25/15 A3012 RMK A01 T02540152  RH  053%=      5-min Rain = 0
KHA2 201012Z 20008KT 25/15 A3012 RMK A01 T02540151  RH  053%=      5-min Rain = 0
KHA2 201013Z 20007KT 25/15 A3012 RMK A01 T02540151  RH  053%=      5-min Rain = 0
KHA2 201014Z 20008KT 25/15 A3012 RMK A01 T02540151  RH  053%=      5-min Rain = 0
KHA2 201015Z 20009KT 25/15 A3012 RMK A01 T02540151  RH  053%=      5-min Rain = 0
KHA2 201016Z 21008KT 26/15 A3012 RMK A01 T02550151  RH  053%=      5-min Rain = 0
KHA2 201017Z 20010KT 26/15 A3011 RMK A01 T02550151  RH  053%=      5-min Rain = 0
KHA2 201018Z 20009KT 26/15 A3011 RMK A01 T02560152  RH  053%=      5-min Rain = 0
KHA2 201019Z 21009KT 26/15 A3011 RMK A01 T02560151  RH  052%=      5-min Rain = 0
KHA2 201020Z 20010KT 26/15 A3011 RMK A01 T02560152  RH  052%=      5-min Rain = 0
KHA2 201021Z 20009KT 26/15 A3011 RMK A01 T02570152  RH  052%=      5-min Rain = 0
KHA2 201022Z 20011KT 26/15 A3011 RMK A01 T02570151  RH  052%=      5-min Rain = 0
KHA2 201023Z 20011KT 26/15 A3011 RMK A01 T02570152  RH  052%=      5-min Rain = 0
KHA2 201024Z 20010KT 26/15 A3011 RMK A01 T02580152  RH  052%=      5-min Rain = 0
KHA2 201025Z 20010KT 26/15 A3011 RMK A01 T02580152  RH  052%=      5-min Rain = 0
KHA2 201026Z 20011KT 26/15 A3011 RMK A01 T02580152  RH  052%=      5-min Rain = 0
KHA2 201027Z 20010KT 26/15 A3011 RMK A01 T02580152  RH  052%=      5-min Rain = 0
KHA2 201028Z 20011KT 26/15 A3011 RMK A01 T02580152  RH  052%=      5-min Rain = 0
KHA2 201029Z 20011KT 26/15 A3011 RMK A01 T02580152  RH  052%=      5-min Rain = 0
KHA2 201030Z 20011KT 26/15 A3011 RMK A01 T02580152  RH  052%=      5-min Rain = 0
KHA2 201031Z 20012KT 26/15 A3011 RMK A01 T02580152  RH  052%=      5-min Rain = 0
KHA2 201032Z 20012KT 26/15 A3011 RMK A01 T02580152  RH  052%=      5-min Rain = 0
KHA2 201033Z 20011KT 26/15 A3011 RMK A01 T02580152  RH  052%=      5-min Rain = 0
KHA2 201034Z 20012KT 26/15 A3011 RMK A01 T02580152  RH  052%=      5-min Rain = 0
KHA2 201035Z 20011KT 26/15 A3011 RMK A01 T02580152  RH  052%=      5-min Rain = 0
KHA2 201036Z 21012KT 26/15 A3011 RMK A01 T02590152  RH  052%=      5-min Rain = 0
KHA2 201037Z 20011KT 26/15 A3011 RMK A01 T02580152  RH  052%=      5-min Rain = 0
KHA2 201038Z 20011KT 26/15 A3011 RMK A01 T02590152  RH  052%=      5-min Rain = 0
KHA2 201039Z 20011KT 26/15 A3011 RMK A01 T02590152  RH  052%=      5-min Rain = 0
KHA2 201040Z 20011KT 26/15 A3011 RMK A01 T02580152  RH  052%=      5-min Rain = 0
KHA2 201041Z 20012KT 26/15 A3011 RMK A01 T02590152  RH  052%=      5-min Rain = 0
KHA2 201042Z 20012KT 26/15 A3011 RMK A01 T02590152  RH  052%=      5-min Rain = 0
KHA2 201043Z 20012KT 26/15 A3011 RMK A01 T02590152  RH  052%=      5-min Rain = 0
KHA2 201044Z 20011KT 26/15 A3011 RMK A01 T02600152  RH  052%=      5-min Rain = 0
KHA2 201045Z 20012KT 26/15 A3011 RMK A01 T02600152  RH  052%=      5-min Rain = 0
KHA2 201046Z 20011KT 26/15 A3011 RMK A01 T02590152  RH  052%=      5-min Rain = 0
KHA2 201047Z 20012KT 26/15 A3011 RMK A01 T02600152  RH  052%=      5-min Rain = 0
KHA2 201048Z 20013KT 26/15 A3011 RMK A01 T02600152  RH  051%=      5-min Rain = 0
KHA2 201049Z 20012KT 26/15 A3011 RMK A01 T02590152  RH  051%=      5-min Rain = 0
KHA2 201050Z 20012KT 26/15 A3011 RMK A01 T02600152  RH  051%=      5-min Rain = 0
KHA2 201051Z 20011KT 26/15 A3011 RMK A01 T02590152  RH  051%=      5-min Rain = 0
KHA2 201052Z 20011KT 26/15 A3011 RMK A01 T02600152  RH  051%=      5-min Rain = 0
KHA2 201053Z 20011KT 26/15 A3011 RMK A01 T02590152  RH  052%=      5-min Rain = 0
KHA2 201054Z 20011KT 26/15 A3011 RMK A01 T02590152  RH  051%=      5-min Rain = 0
KHA2 201055Z 20014KT 26/15 A3011 RMK A01 T02590152  RH  051%=      5-min Rain = 0
KHA2 201056Z 20012KT 26/15 A3011 RMK A01 T02590152  RH  051%=      5-min Rain = 0
KHA2 201057Z 20011KT 26/15 A3011 RMK A01 T02600152  RH  051%=      5-min Rain = 0
KHA2 201058Z 20013KT 26/15 A3011 RMK A01 T02590151  RH  051%=      5-min Rain = 0
KHA2 201059Z 20012KT 26/15 A3011 RMK A01 T02590151  RH  051%=      5-min Rain = 0
KHA2 201100Z 20012KT 26/15 A3011 RMK A01 T02590151  RH  051%=      5-min Rain = 0
KHA2 201101Z 20013KT 26/15 A3011 RMK A01 T02600151  RH  051%=      5-min Rain = 0
KHA2 201102Z 20012KT 26/15 A3011 RMK A01 T02600151  RH  051%=      5-min Rain = 0
KHA2 201103Z 20012KT 26/15 A3011 RMK A01 T02600152  RH  051%=      5-min Rain = 0
KHA2 201104Z 20012KT 26/15 A3011 RMK A01 T02590151  RH  051%=      5-min Rain = 0
KHA2 201105Z 20012KT 26/15 A3011 RMK A01 T02600152  RH  051%=      5-min Rain = 0
KHA2 201106Z 20012KT 26/15 A3011 RMK A01 T02590151  RH  051%=      5-min Rain = 0
KHA2 201107Z 20011KT 26/15 A3011 RMK A01 T02600151  RH  051%=      5-min Rain = 0
KHA2 201108Z 20012KT 26/15 A3011 RMK A01 T02590151  RH  051%=      5-min Rain = 0
KHA2 201109Z 20012KT 26/15 A3011 RMK A01 T02590151  RH  051%=      5-min Rain = 0
KHA2 201110Z 20011KT 26/15 A3011 RMK A01 T02590151  RH  051%=      5-min Rain = 0
KHA2 201111Z 20013KT 26/15 A3011 RMK A01 T02590151  RH  051%=      5-min Rain = 0
KHA2 201112Z 20010KT 26/15 A3011 RMK A01 T02590151  RH  052%=      5-min Rain = 0
KHA2 201113Z 20011KT 26/15 A3011 RMK A01 T02580151  RH  052%=      5-min Rain = 0
KHA2 201114Z 20012KT 26/15 A3011 RMK A01 T02580151  RH  052%=      5-min Rain = 0
KHA2 201115Z 19010KT 26/15 A3012 RMK A01 T02580151  RH  052%=      5-min Rain = 0
KHA2 201116Z 19011KT 26/15 A3012 RMK A01 T02570151  RH  052%=      5-min Rain = 0
KHA2 201117Z 19012KT 26/15 A3012 RMK A01 T02570151  RH  052%=      5-min Rain = 0
KHA2 201118Z 19012KT 26/15 A3012 RMK A01 T02570151  RH  052%=      5-min Rain = 0
KHA2 201119Z 19011KT 26/15 A3012 RMK A01 T02570151  RH  052%=      5-min Rain = 0
KHA2 201120Z 19011KT 26/15 A3012 RMK A01 T02570151  RH  052%=      5-min Rain = 0
KHA2 201121Z 20011KT 26/15 A3012 RMK A01 T02570152  RH  052%=      5-min Rain = 0
KHA2 201122Z 19011KT 26/15 A3012 RMK A01 T02560151  RH  052%=      5-min Rain = 0
KHA2 201123Z 19012KT 26/15 A3012 RMK A01 T02560151  RH  052%=      5-min Rain = 0
KHA2 201124Z 20013KT 26/15 A3012 RMK A01 T02560152  RH  052%=      5-min Rain = 0
KHA2 201125Z 19010KT 26/15 A3012 RMK A01 T02560151  RH  052%=      5-min Rain = 0
KHA2 201126Z 19012KT 26/15 A3012 RMK A01 T02560151  RH  052%=      5-min Rain = 0
KHA2 201127Z 19012KT 26/15 A3012 RMK A01 T02560151  RH  052%=      5-min Rain = 0
KHA2 201128Z 20013KT 26/15 A3012 RMK A01 T02560151  RH  052%=      5-min Rain = 0
KHA2 201129Z 19012KT 26/15 A3012 RMK A01 T02560151  RH  052%=      5-min Rain = 0
KHA2 201130Z 20013KT 26/15 A3012 RMK A01 T02560151  RH  052%=      5-min Rain = 0
KHA2 201131Z 20013KT 26/15 A3012 RMK A01 T02560151  RH  052%=      5-min Rain = 0
KHA2 201132Z 20012KT 26/15 A3012 RMK A01 T02560150  RH  052%=      5-min Rain = 0
KHA2 201133Z 20011KT 26/15 A3012 RMK A01 T02560151  RH  052%=      5-min Rain = 0
KHA2 201134Z 19013KT 26/15 A3012 RMK A01 T02560151  RH  052%=      5-min Rain = 0
KHA2 201135Z 19011KT 26/15 A3012 RMK A01 T02560151  RH  052%=      5-min Rain = 0
KHA2 201136Z 20012KT 26/15 A3012 RMK A01 T02560151  RH  052%=      5-min Rain = 0
KHA2 201137Z 19013KT 26/15 A3012 RMK A01 T02560150  RH  052%=      5-min Rain = 0
KHA2 201138Z 20013KT 26/15 A3012 RMK A01 T02560150  RH  052%=      5-min Rain = 0
KHA2 201139Z 20013KT 26/15 A3012 RMK A01 T02560150  RH  052%=      5-min Rain = 0
KHA2 201140Z 19012KT 26/15 A3012 RMK A01 T02560150  RH  052%=      5-min Rain = 0
KHA2 201141Z 20013KT 26/15 A3012 RMK A01 T02560150  RH  052%=      5-min Rain = 0
KHA2 201142Z 20011KT 26/15 A3012 RMK A01 T02560150  RH  052%=      5-min Rain = 0
KHA2 201143Z 19011KT 26/15 A3012 RMK A01 T02560150  RH  052%=      5-min Rain = 0
KHA2 201144Z 19011KT 26/15 A3012 RMK A01 T02550150  RH  052%=      5-min Rain = 0
KHA2 201145Z 19012KT 26/15 A3012 RMK A01 T02550150  RH  052%=      5-min Rain = 0
KHA2 201146Z 20011KT 26/15 A3012 RMK A01 T02550150  RH  052%=      5-min Rain = 0
KHA2 201147Z 20011KT 26/15 A3012 RMK A01 T02550150  RH  052%=      5-min Rain = 0
KHA2 201148Z 19011KT 26/15 A3012 RMK A01 T02550150  RH  052%=      5-min Rain = 0
KHA2 201149Z 20011KT 26/15 A3012 RMK A01 T02550150  RH  052%=      5-min Rain = 0
KHA2 201150Z 20011KT 26/15 A3012 RMK A01 T02550150  RH  052%=      5-min Rain = 0
KHA2 201151Z 20011KT 25/15 A3012 RMK A01 T02540150  RH  052%=      5-min Rain = 0
KHA2 201152Z 20011KT 26/15 A3012 RMK A01 T02550150  RH  052%=      5-min Rain = 0
KHA2 201153Z 20011KT 26/15 A3012 RMK A01 T02550150  RH  052%=      5-min Rain = 0
KHA2 201154Z 21012KT 25/15 A3012 RMK A01 T02540150  RH  052%=      5-min Rain = 0
KHA2 201155Z 21011KT 25/15 A3012 RMK A01 T02540150  RH  052%=      5-min Rain = 0
KHA2 201156Z 20010KT 25/15 A3012 RMK A01 T02540149  RH  052%=      5-min Rain = 0
KHA2 201157Z 20010KT 25/15 A3012 RMK A01 T02540150  RH  052%=      5-min Rain = 0
KHA2 201158Z 21012KT 25/15 A3012 RMK A01 T02540149  RH  052%=      5-min Rain = 0
KHA2 201159Z 21010KT 25/15 A3012 RMK A01 T02540149  RH  052%=      5-min Rain = 0
KHA2 201200Z 20012KT 25/15 A3012 RMK A01 T02540149  RH  052%=      5-min Rain = 0
KHA2 201201Z 21010KT 25/15 A3012 RMK A01 T02540149  RH  052%=      5-min Rain = 0
KHA2 201202Z 21012KT 25/15 A3012 RMK A01 T02530149  RH  052%=      5-min Rain = 0
KHA2 201203Z 21010KT 25/15 A3012 RMK A01 T02530149  RH  052%=      5-min Rain = 0
KHA2 201204Z 21012KT 25/15 A3012 RMK A01 T02530149  RH  053%=      5-min Rain = 0
KHA2 201205Z 21012KT 25/15 A3012 RMK A01 T02530149  RH  053%=      5-min Rain = 0
KHA2 201206Z 21011KT 25/15 A3012 RMK A01 T02530149  RH  053%=      5-min Rain = 0
KHA2 201207Z 21011KT 25/15 A3012 RMK A01 T02530149  RH  053%=      5-min Rain = 0
KHA2 201208Z 21010KT 25/15 A3012 RMK A01 T02530149  RH  053%=      5-min Rain = 0
KHA2 201209Z 21010KT 25/15 A3012 RMK A01 T02520149  RH  053%=      5-min Rain = 0
KHA2 201210Z 21009KT 25/15 A3012 RMK A01 T02520149  RH  053%=      5-min Rain = 0
KHA2 201211Z 21009KT 25/15 A3012 RMK A01 T02520149  RH  053%=      5-min Rain = 0
KHA2 201212Z 22011KT 25/15 A3012 RMK A01 T02510149  RH  053%=      5-min Rain = 0
KHA2 201213Z 22009KT 25/15 A3012 RMK A01 T02510149  RH  053%=      5-min Rain = 0
KHA2 201214Z 22009KT 25/15 A3012 RMK A01 T02510149  RH  053%=      5-min Rain = 0
KHA2 201215Z 22008KT 25/15 A3013 RMK A01 T02510149  RH  053%=      5-min Rain = 0
KHA2 201216Z 22009KT 25/15 A3013 RMK A01 T02510149  RH  053%=      5-min Rain = 0
KHA2 201217Z 22009KT 25/15 A3013 RMK A01 T02510149  RH  053%=      5-min Rain = 0
KHA2 201218Z 22008KT 25/15 A3013 RMK A01 T02510149  RH  053%=      5-min Rain = 0
KHA2 201219Z 22008KT 25/15 A3013 RMK A01 T02500149  RH  053%=      5-min Rain = 0
KHA2 201220Z 21008KT 25/15 A3013 RMK A01 T02500149  RH  053%=      5-min Rain = 0
KHA2 201221Z 21008KT 25/15 A3013 RMK A01 T02500148  RH  053%=      5-min Rain = 0
KHA2 201222Z 21008KT 25/15 A3013 RMK A01 T02500149  RH  053%=      5-min Rain = 0
KHA2 201223Z 22007KT 25/15 A3013 RMK A01 T02500148  RH  053%=      5-min Rain = 0
KHA2 201224Z 21008KT 25/15 A3013 RMK A01 T02490148  RH  053%=      5-min Rain = 0
KHA2 201225Z 21007KT 25/15 A3013 RMK A01 T02490148  RH  053%=      5-min Rain = 0
KHA2 201226Z 21007KT 25/15 A3013 RMK A01 T02490148  RH  053%=      5-min Rain = 0
KHA2 201227Z 21007KT 25/15 A3013 RMK A01 T02490148  RH  053%=      5-min Rain = 0
KHA2 201228Z 21007KT 25/15 A3013 RMK A01 T02480148  RH  054%=      5-min Rain = 0
KHA2 201229Z 21007KT 25/15 A3013 RMK A01 T02480148  RH  054%=      5-min Rain = 0
KHA2 201230Z 21007KT 25/15 A3013 RMK A01 T02480148  RH  054%=      5-min Rain = 0
KHA2 201231Z 20007KT 25/15 A3013 RMK A01 T02480148  RH  054%=      5-min Rain = 0
KHA2 201232Z 20007KT 25/15 A3013 RMK A01 T02480148  RH  054%=      5-min Rain = 0
KHA2 201233Z 20007KT 25/15 A3013 RMK A01 T02480148  RH  054%=      5-min Rain = 0
KHA2 201234Z 20008KT 25/15 A3013 RMK A01 T02480148  RH  054%=      5-min Rain = 0
KHA2 201235Z 20007KT 25/15 A3013 RMK A01 T02470148  RH  054%=      5-min Rain = 0
KHA2 201236Z 20007KT 25/15 A3013 RMK A01 T02480148  RH  054%=      5-min Rain = 0
KHA2 201237Z 20008KT 25/15 A3013 RMK A01 T02470148  RH  054%=      5-min Rain = 0
KHA2 201238Z 20007KT 25/15 A3013 RMK A01 T02480148  RH  054%=      5-min Rain = 0
KHA2 201239Z 20007KT 25/15 A3013 RMK A01 T02480148  RH  054%=      5-min Rain = 0
KHA2 201240Z 20007KT 25/15 A3014 RMK A01 T02480148  RH  054%=      5-min Rain = 0
KHA2 201241Z 20008KT 25/15 A3014 RMK A01 T02480148  RH  054%=      5-min Rain = 0
KHA2 201242Z 21007KT 25/15 A3014 RMK A01 T02480148  RH  054%=      5-min Rain = 0
KHA2 201243Z 21007KT 25/15 A3014 RMK A01 T02480148  RH  054%=      5-min Rain = 0
KHA2 201244Z 21006KT 25/15 A3014 RMK A01 T02480148  RH  054%=      5-min Rain = 0
KHA2 201245Z 21007KT 25/15 A3014 RMK A01 T02480148  RH  054%=      5-min Rain = 0
KHA2 201246Z 21007KT 25/15 A3014 RMK A01 T02480149  RH  054%=      5-min Rain = 0
KHA2 201247Z 21006KT 25/15 A3014 RMK A01 T02480148  RH  054%=      5-min Rain = 0
KHA2 201248Z 21006KT 25/15 A3014 RMK A01 T02480148  RH  054%=      5-min Rain = 0
KHA2 201249Z 21006KT 25/15 A3014 RMK A01 T02480149  RH  054%=      5-min Rain = 0
KHA2 201250Z 21007KT 25/15 A3014 RMK A01 T02480148  RH  054%=      5-min Rain = 0
KHA2 201251Z 21006KT 25/15 A3014 RMK A01 T02480148  RH  054%=      5-min Rain = 0
KHA2 201252Z 22006KT 25/15 A3014 RMK A01 T02490149  RH  054%=      5-min Rain = 0
KHA2 201253Z 21007KT 25/15 A3014 RMK A01 T02490148  RH  054%=      5-min Rain = 0
KHA2 201254Z 22007KT 25/15 A3014 RMK A01 T02490148  RH  054%=      5-min Rain = 0
KHA2 201255Z 22006KT 25/15 A3015 RMK A01 T02490148  RH  054%=      5-min Rain = 0
KHA2 201256Z 23006KT 25/15 A3015 RMK A01 T02490148  RH  054%=      5-min Rain = 0
KHA2 201257Z 23006KT 25/15 A3015 RMK A01 T02490148  RH  054%=      5-min Rain = 0
KHA2 201258Z 23006KT 25/15 A3015 RMK A01 T02490149  RH  054%=      5-min Rain = 0
KHA2 201259Z 24006KT 25/15 A3015 RMK A01 T02490148  RH  053%=      5-min Rain = 0
KHA2 201300Z 24006KT 25/15 A3015 RMK A01 T02490148  RH  053%=      5-min Rain = 0
KHA2 201301Z 24005KT 25/15 A3015 RMK A01 T02490148  RH  053%=      5-min Rain = 0
KHA2 201302Z 25005KT 25/15 A3015 RMK A01 T02490148  RH  053%=      5-min Rain = 0
KHA2 201303Z 24006KT 25/15 A3015 RMK A01 T02490148  RH  053%=      5-min Rain = 0
KHA2 201304Z 24005KT 25/15 A3015 RMK A01 T02490148  RH  053%=      5-min Rain = 0
KHA2 201305Z 24005KT 25/15 A3015 RMK A01 T02490149  RH  054%=      5-min Rain = 0
KHA2 201306Z 24005KT 25/15 A3015 RMK A01 T02490149  RH  054%=      5-min Rain = 0
KHA2 201307Z 24004KT 25/15 A3015 RMK A01 T02490149  RH  054%=      5-min Rain = 0
KHA2 201308Z 24004KT 25/15 A3015 RMK A01 T02490148  RH  054%=      5-min Rain = 0
KHA2 201309Z 24004KT 25/15 A3015 RMK A01 T02490149  RH  054%=      5-min Rain = 0
KHA2 201310Z 24003KT 25/15 A3015 RMK A01 T02490148  RH  054%=      5-min Rain = 0
KHA2 201311Z 24003KT 25/15 A3015 RMK A01 T02490148  RH  053%=      5-min Rain = 0
KHA2 201312Z 24004KT 25/15 A3015 RMK A01 T02490148  RH  053%=      5-min Rain = 0
KHA2 201313Z 24004KT 25/15 A3015 RMK A01 T02500149  RH  053%=      5-min Rain = 0
KHA2 201314Z 23004KT 25/15 A3015 RMK A01 T02500149  RH  053%=      5-min Rain = 0
KHA2 201315Z 24004KT 25/15 A3015 RMK A01 T02500149  RH  053%=      5-min Rain = 0
KHA2 201316Z 22004KT 25/15 A3015 RMK A01 T02500149  RH  053%=      5-min Rain = 0
KHA2 201317Z 22005KT 25/15 A3015 RMK A01 T02510149  RH  053%=      5-min Rain = 0
KHA2 201318Z 23005KT 25/15 A3015 RMK A01 T02510149  RH  053%=      5-min Rain = 0
KHA2 201319Z 22004KT 25/15 A3015 RMK A01 T02510149  RH  053%=      5-min Rain = 0
KHA2 201320Z 22005KT 25/15 A3015 RMK A01 T02520149  RH  053%=      5-min Rain = 0
KHA2 201321Z 22005KT 25/15 A3015 RMK A01 T02520149  RH  053%=      5-min Rain = 0
KHA2 201322Z 22005KT 25/15 A3015 RMK A01 T02520149  RH  053%=      5-min Rain = 0
KHA2 201323Z 22005KT 25/15 A3015 RMK A01 T02530149  RH  053%=      5-min Rain = 0
KHA2 201324Z 22006KT 25/15 A3015 RMK A01 T02530149  RH  053%=      5-min Rain = 0
KHA2 201325Z 22006KT 25/15 A3015 RMK A01 T02530149  RH  052%=      5-min Rain = 0
KHA2 201326Z 22006KT 25/15 A3015 RMK A01 T02530149  RH  052%=      5-min Rain = 0
KHA2 201327Z 22006KT 25/15 A3015 RMK A01 T02540149  RH  052%=      5-min Rain = 0
KHA2 201328Z 23005KT 26/15 A3015 RMK A01 T02550149  RH  052%=      5-min Rain = 0
KHA2 201329Z 23006KT 26/15 A3015 RMK A01 T02550149  RH  052%=      5-min Rain = 0
KHA2 201330Z 23005KT 26/15 A3015 RMK A01 T02550149  RH  052%=      5-min Rain = 0
KHA2 201331Z 23006KT 26/15 A3015 RMK A01 T02560149  RH  052%=      5-min Rain = 0
KHA2 201332Z 23004KT 26/15 A3015 RMK A01 T02560149  RH  051%=      5-min Rain = 0
KHA2 201333Z 23005KT 26/15 A3015 RMK A01 T02570149  RH  051%=      5-min Rain = 0
KHA2 201334Z 23005KT 26/15 A3015 RMK A01 T02570149  RH  051%=      5-min Rain = 0
KHA2 201335Z 24006KT 26/15 A3015 RMK A01 T02570149  RH  051%=      5-min Rain = 0
KHA2 201336Z 24006KT 26/15 A3015 RMK A01 T02570149  RH  051%=      5-min Rain = 0
KHA2 201337Z 24005KT 26/15 A3015 RMK A01 T02580149  RH  051%=      5-min Rain = 0
KHA2 201338Z 24006KT 26/15 A3015 RMK A01 T02590149  RH  051%=      5-min Rain = 0
KHA2 201339Z 24005KT 26/15 A3015 RMK A01 T02590149  RH  050%=      5-min Rain = 0
KHA2 201340Z 24006KT 26/15 A3015 RMK A01 T02600149  RH  050%=      5-min Rain = 0
KHA2 201341Z 24006KT 26/15 A3016 RMK A01 T02600149  RH  050%=      5-min Rain = 0
KHA2 201342Z 23006KT 26/15 A3015 RMK A01 T02610149  RH  050%=      5-min Rain = 0
KHA2 201343Z 25007KT 26/15 A3015 RMK A01 T02630150  RH  050%=      5-min Rain = 0
KHA2 201344Z 24007KT 26/15 A3015 RMK A01 T02640150  RH  050%=      5-min Rain = 0
KHA2 201345Z 24006KT 27/15 A3015 RMK A01 T02650150  RH  049%=      5-min Rain = 0
KHA2 201346Z 24007KT 27/15 A3015 RMK A01 T02660149  RH  049%=      5-min Rain = 0
KHA2 201347Z 24007KT 27/15 A3015 RMK A01 T02680150  RH  048%=      5-min Rain = 0
KHA2 201348Z 25008KT 27/15 A3015 RMK A01 T02690150  RH  048%=      5-min Rain = 0
KHA2 201349Z 24007KT 27/15 A3015 RMK A01 T02710150  RH  048%=      5-min Rain = 0
KHA2 201350Z 24009KT 27/15 A3015 RMK A01 T02720150  RH  047%=      5-min Rain = 0
KHA2 201351Z 24011KT 27/15 A3015 RMK A01 T02740150  RH  047%=      5-min Rain = 0
KHA2 201352Z 24011KT 28/15 A3015 RMK A01 T02760149  RH  046%=      5-min Rain = 0
KHA2 201353Z 24011KT 28/15 A3015 RMK A01 T02770149  RH  046%=      5-min Rain = 0
KHA2 201354Z 25011KT 28/15 A3015 RMK A01 T02780150  RH  046%=      5-min Rain = 0
KHA2 201355Z 24011KT 28/15 A3015 RMK A01 T02800150  RH  045%=      5-min Rain = 0
KHA2 201356Z 24011KT 28/15 A3015 RMK A01 T02800150  RH  045%=      5-min Rain = 0
KHA2 201357Z 24013KT 28/15 A3015 RMK A01 T02810151  RH  045%=      5-min Rain = 0
KHA2 201358Z 24010KT 28/15 A3015 RMK A01 T02820152  RH  045%=      5-min Rain = 0
KHA2 201359Z 24010KT 28/15 A3015 RMK A01 T02840152  RH  044%=      5-min Rain = 0
KHA2 201400Z 25011KT 29/15 A3015 RMK A01 T02850152  RH  044%=      5-min Rain = 0
KHA2 201401Z 24012KT 29/15 A3015 RMK A01 T02880153  RH  044%=      5-min Rain = 0
KHA2 201402Z 24010KT 29/15 A3015 RMK A01 T02890153  RH  043%=      5-min Rain = 0
KHA2 201403Z 24010KT 29/15 A3015 RMK A01 T02900153  RH  043%=      5-min Rain = 0
KHA2 201404Z 25008KT 29/15 A3015 RMK A01 T02920154  RH  043%=      5-min Rain = 0
KHA2 201405Z 24012KT 29/15 A3015 RMK A01 T02930153  RH  042%=      5-min Rain = 0
KHA2 201406Z 25011KT 29/15 A3015 RMK A01 T02930152  RH  042%=      5-min Rain = 0
KHA2 201407Z 25013KT 29/15 A3015 RMK A01 T02930151  RH  042%=      5-min Rain = 0
KHA2 201408Z 25012KT 29/15 A3015 RMK A01 T02930151  RH  042%=      5-min Rain = 0
KHA2 201409Z 25013KT 29/15 A3015 RMK A01 T02930152  RH  042%=      5-min Rain = 0
KHA2 201410Z 25014KT 29/15 A3016 RMK A01 T02930152  RH  042%=      5-min Rain = 0
KHA2 201411Z 25016KT 29/15 A3015 RMK A01 T02940152  RH  042%=      5-min Rain = 0
KHA2 201412Z 24015KT 29/15 A3016 RMK A01 T02920151  RH  042%=      5-min Rain = 0
KHA2 201413Z 24015KT 29/15 A3016 RMK A01 T02910151  RH  043%=      5-min Rain = 0
KHA2 201414Z 23015KT 29/15 A3015 RMK A01 T02920152  RH  043%=      5-min Rain = 0
KHA2 201415Z 26012KT 29/15 A3016 RMK A01 T02920151  RH  042%=      5-min Rain = 0
KHA2 201416Z 24014KT 29/15 A3016 RMK A01 T02940152  RH  042%=      5-min Rain = 0
KHA2 201417Z 25013KT 30/15 A3016 RMK A01 T02950152  RH  042%=      5-min Rain = 0
KHA2 201418Z 24013KT 29/15 A3016 RMK A01 T02940152  RH  042%=      5-min Rain = 0
KHA2 201419Z 25015KT 29/15 A3016 RMK A01 T02940153  RH  042%=      5-min Rain = 0
KHA2 201420Z 25016KT 30/15 A3016 RMK A01 T02950152  RH  042%=      5-min Rain = 0
KHA2 201421Z 25015KT 29/15 A3016 RMK A01 T02940152  RH  042%=      5-min Rain = 0
KHA2 201422Z 24015KT 29/15 A3016 RMK A01 T02940152  RH  042%=      5-min Rain = 0
KHA2 201423Z 23016KT 29/15 A3016 RMK A01 T02940153  RH  042%=      5-min Rain = 0
KHA2 201424Z 24015KT 30/15 A3016 RMK A01 T02950153  RH  042%=      5-min Rain = 0
KHA2 201425Z 23013KT 29/15 A3016 RMK A01 T02940153  RH  042%=      5-min Rain = 0
KHA2 201426Z 24012KT 30/15 A3016 RMK A01 T02960154  RH  042%=      5-min Rain = 0
KHA2 201427Z 25013KT 30/15 A3016 RMK A01 T02980153  RH  041%=      5-min Rain = 0
KHA2 201428Z 24012KT 30/15 A3016 RMK A01 T02990153  RH  041%=      5-min Rain = 0
KHA2 201429Z 24014G19KT 30/15 A3017 RMK A01 T03000154  RH  041%=      5-min Rain = 0
KHA2 201430Z 25014KT 30/16 A3017 RMK A01 T03020155  RH  041%=      5-min Rain = 0
KHA2 201431Z 24015KT 30/16 A3017 RMK A01 T03020155  RH  041%=      5-min Rain = 0
KHA2 201432Z 25015KT 30/15 A3017 RMK A01 T02980154  RH  041%=      5-min Rain = 0
KHA2 201433Z 24014KT 30/16 A3017 RMK A01 T02980155  RH  042%=      5-min Rain = 0
KHA2 201434Z 24016KT 30/16 A3017 RMK A01 T02980155  RH  042%=      5-min Rain = 0
KHA2 201435Z 24015KT 30/15 A3017 RMK A01 T02980154  RH  042%=      5-min Rain = 0
KHA2 201436Z 24015KT 30/15 A3017 RMK A01 T02980154  RH  042%=      5-min Rain = 0
KHA2 201437Z 23016KT 30/16 A3017 RMK A01 T02990155  RH  042%=      5-min Rain = 0
KHA2 201438Z 23013KT 30/16 A3017 RMK A01 T02960155  RH  042%=      5-min Rain = 0
KHA2 201439Z 25012KT 30/15 A3017 RMK A01 T02950154  RH  042%=      5-min Rain = 0
KHA2 201440Z 26012KT 29/15 A3017 RMK A01 T02940153  RH  042%=      5-min Rain = 0
KHA2 201441Z 25012KT 29/15 A3017 RMK A01 T02940152  RH  042%=      5-min Rain = 0
KHA2 201442Z 25013KT 29/15 A3017 RMK A01 T02940152  RH  042%=      5-min Rain = 0
KHA2 201443Z 25011KT 29/15 A3017 RMK A01 T02910151  RH  043%=      5-min Rain = 0
KHA2 201444Z 24013KT 29/15 A3017 RMK A01 T02890151  RH  043%=      5-min Rain = 0
KHA2 201445Z 25015KT 29/15 A3017 RMK A01 T02890150  RH  043%=      5-min Rain = 0
KHA2 201446Z 25013KT 29/15 A3017 RMK A01 T02880150  RH  043%=      5-min Rain = 0
KHA2 201447Z 24015KT 29/15 A3017 RMK A01 T02870151  RH  043%=      5-min Rain = 0
KHA2 201448Z 26013KT 29/15 A3017 RMK A01 T02870150  RH  043%=      5-min Rain = 0
KHA2 201449Z 26011KT 29/15 A3017 RMK A01 T02860150  RH  044%=      5-min Rain = 0
KHA2 201450Z 26010KT 29/15 A3017 RMK A01 T02870150  RH  043%=      5-min Rain = 0
KHA2 201451Z 27012KT 29/15 A3017 RMK A01 T02870150  RH  043%=      5-min Rain = 0
KHA2 201452Z 26012KT 29/15 A3017 RMK A01 T02860150  RH  043%=      5-min Rain = 0
KHA2 201453Z 25012KT 29/15 A3017 RMK A01 T02850150  RH  044%=      5-min Rain = 0
KHA2 201454Z 25014KT 29/15 A3017 RMK A01 T02850150  RH  044%=      5-min Rain = 0
KHA2 201455Z 25012KT 29/15 A3017 RMK A01 T02850150  RH  044%=      5-min Rain = 0
KHA2 201456Z 25012KT 29/15 A3017 RMK A01 T02860149  RH  043%=      5-min Rain = 0
KHA2 201457Z 25012KT 29/15 A3016 RMK A01 T02860149  RH  043%=      5-min Rain = 0
KHA2 201458Z 26012KT 29/15 A3016 RMK A01 T02860150  RH  044%=      5-min Rain = 0
KHA2 201459Z 26012KT 29/15 A3016 RMK A01 T02870150  RH  043%=      5-min Rain = 0
KHA2 201500Z 25010KT 29/15 A3017 RMK A01 T02870149  RH  043%=      5-min Rain = 0
KHA2 201501Z 26012KT 29/15 A3016 RMK A01 T02890150  RH  043%=      5-min Rain = 0
KHA2 201502Z 25012G17KT 29/15 A3016 RMK A01 T02890151  RH  043%=      5-min Rain = 0
KHA2 201503Z 24014KT 29/15 A3016 RMK A01 T02890152  RH  043%=      5-min Rain = 0
KHA2 201504Z 24014KT 29/15 A3016 RMK A01 T02900153  RH  043%=      5-min Rain = 0
KHA2 201505Z 24012KT 29/15 A3016 RMK A01 T02910153  RH  043%=      5-min Rain = 0
KHA2 201506Z 25013KT 29/15 A3016 RMK A01 T02920153  RH  043%=      5-min Rain = 0
KHA2 201507Z 25014KT 29/15 A3016 RMK A01 T02920152  RH  043%=      5-min Rain = 0
KHA2 201508Z 25012KT 29/15 A3016 RMK A01 T02900152  RH  043%=      5-min Rain = 0
KHA2 201509Z 24013KT 29/15 A3016 RMK A01 T02900153  RH  043%=      5-min Rain = 0
KHA2 201510Z 24013KT 29/15 A3016 RMK A01 T02910154  RH  043%=      5-min Rain = 0
KHA2 201511Z 26015KT 29/15 A3016 RMK A01 T02920153  RH  043%=      5-min Rain = 0
KHA2 201512Z 26012KT 29/15 A3016 RMK A01 T02920153  RH  043%=      5-min Rain = 0
KHA2 201513Z 26013KT 29/15 A3016 RMK A01 T02930153  RH  043%=      5-min Rain = 0
KHA2 201514Z 25013KT 29/15 A3016 RMK A01 T02910153  RH  043%=      5-min Rain = 0
KHA2 201515Z 25013KT 29/15 A3016 RMK A01 T02910153  RH  043%=      5-min Rain = 0
KHA2 201516Z 27012KT 29/15 A3016 RMK A01 T02910153  RH  043%=      5-min Rain = 0
KHA2 201517Z 26012KT 29/15 A3016 RMK A01 T02910153  RH  043%=      5-min Rain = 0
KHA2 201518Z 27012KT 29/15 A3016 RMK A01 T02920153  RH  043%=      5-min Rain = 0
KHA2 201519Z 27012KT 29/15 A3016 RMK A01 T02930154  RH  043%=      5-min Rain = 0
KHA2 201520Z 27013KT 29/15 A3016 RMK A01 T02930154  RH  043%=      5-min Rain = 0
KHA2 201521Z 27014KT 29/15 A3016 RMK A01 T02930154  RH  043%=      5-min Rain = 0
KHA2 201522Z 27014KT 29/15 A3017 RMK A01 T02920154  RH  043%=      5-min Rain = 0
KHA2 201523Z 27013KT 29/15 A3017 RMK A01 T02920154  RH  043%=      5-min Rain = 0
KHA2 201524Z 27013KT 29/15 A3017 RMK A01 T02930154  RH  043%=      5-min Rain = 0
KHA2 201525Z 26014KT 30/15 A3017 RMK A01 T02950154  RH  043%=      5-min Rain = 0
KHA2 201526Z 25015KT 30/15 A3017 RMK A01 T02950154  RH  042%=      5-min Rain = 0
KHA2 201527Z 25015KT 30/15 A3017 RMK A01 T02950154  RH  043%=      5-min Rain = 0
KHA2 201528Z 26015KT 30/15 A3017 RMK A01 T02960154  RH  042%=      5-min Rain = 0
KHA2 201529Z 25013KT 30/15 A3017 RMK A01 T02950154  RH  042%=      5-min Rain = 0
KHA2 201530Z 25015KT 30/15 A3017 RMK A01 T02950153  RH  042%=      5-min Rain = 0
KHA2 201531Z 26014KT 30/15 A3017 RMK A01 T02950152  RH  042%=      5-min Rain = 0
KHA2 201532Z 26013KT 29/15 A3017 RMK A01 T02940152  RH  042%=      5-min Rain = 0
KHA2 201533Z 26011KT 30/15 A3017 RMK A01 T02950152  RH  042%=      5-min Rain = 0
KHA2 201534Z 26011KT 30/15 A3017 RMK A01 T02970153  RH  042%=      5-min Rain = 0
KHA2 201535Z 26011KT 30/15 A3017 RMK A01 T02980152  RH  041%=      5-min Rain = 0
KHA2 201536Z 26011KT 30/15 A3017 RMK A01 T02980153  RH  041%=      5-min Rain = 0
KHA2 201537Z 25013KT 30/15 A3017 RMK A01 T02990153  RH  041%=      5-min Rain = 0
KHA2 201538Z 25012KT 30/15 A3017 RMK A01 T02990153  RH  041%=      5-min Rain = 0
KHA2 201539Z 25012KT 30/15 A3017 RMK A01 T02990153  RH  041%=      5-min Rain = 0
KHA2 201540Z 25013KT 30/15 A3017 RMK A01 T02990153  RH  041%=      5-min Rain = 0
KHA2 201541Z 25014KT 30/15 A3017 RMK A01 T03000153  RH  041%=      5-min Rain = 0
KHA2 201542Z 24013KT 30/15 A3017 RMK A01 T02990153  RH  041%=      5-min Rain = 0
KHA2 201543Z 25011KT 30/15 A3017 RMK A01 T02980153  RH  041%=      5-min Rain = 0
KHA2 201544Z 26011KT 30/15 A3017 RMK A01 T02990153  RH  041%=      5-min Rain = 0
KHA2 201545Z 26011KT 30/15 A3017 RMK A01 T03000154  RH  041%=      5-min Rain = 0
KHA2 201546Z 25011KT 30/15 A3017 RMK A01 T03020154  RH  041%=      5-min Rain = 0
KHA2 201547Z 26009KT 30/15 A3017 RMK A01 T03010153  RH  041%=      5-min Rain = 0
KHA2 201548Z 28010KT 30/15 A3017 RMK A01 T03030154  RH  041%=      5-min Rain = 0
KHA2 201549Z 26008KT 30/15 A3017 RMK A01 T03030154  RH  040%=      5-min Rain = 0
KHA2 201550Z 27008KT 30/16 A3017 RMK A01 T03040155  RH  040%=      5-min Rain = 0
KHA2 201551Z 26009KT 31/16 A3017 RMK A01 T03060155  RH  040%=      5-min Rain = 0
KHA2 201552Z 26012KT 31/16 A3017 RMK A01 T03070155  RH  040%=      5-min Rain = 0
KHA2 201553Z 24014KT 31/15 A3017 RMK A01 T03080153  RH  039%=      5-min Rain = 0
KHA2 201554Z 26015G20KT 31/15 A3017 RMK A01 T03080153  RH  039%=      5-min Rain = 0
KHA2 201555Z 29008KT 31/15 A3018 RMK A01 T03080153  RH  039%=      5-min Rain = 0
KHA2 201556Z 27010KT 31/15 A3018 RMK A01 T03080153  RH  039%=      5-min Rain = 0
KHA2 201557Z 26012KT 31/15 A3018 RMK A01 T03070153  RH  039%=      5-min Rain = 0
KHA2 201558Z 28012KT 31/16 A3018 RMK A01 T03060155  RH  040%=      5-min Rain = 0
KHA2 201559Z 28008KT 31/15 A3018 RMK A01 T03050154  RH  040%=      5-min Rain = 0
KHA2 201600Z 29011KT 30/15 A3017 RMK A01 T03040154  RH  040%=      5-min Rain = 0
KHA2 201601Z 28010KT 31/16 A3017 RMK A01 T03060155  RH  040%=      5-min Rain = 0
KHA2 201602Z 27009KT 31/15 A3017 RMK A01 T03070154  RH  040%=      5-min Rain = 0
KHA2 201603Z 26010KT 31/16 A3017 RMK A01 T03070156  RH  040%=      5-min Rain = 0
KHA2 201604Z 27009KT 31/16 A3017 RMK A01 T03070155  RH  040%=      5-min Rain = 0
KHA2 201605Z 27013KT 31/16 A3017 RMK A01 T03060156  RH  040%=      5-min Rain = 0
KHA2 201606Z 27013KT 31/16 A3017 RMK A01 T03060156  RH  040%=      5-min Rain = 0
KHA2 201607Z 27010KT 31/16 A3017 RMK A01 T03080156  RH  040%=      5-min Rain = 0
KHA2 201608Z 28010KT 31/16 A3017 RMK A01 T03110158  RH  040%=      5-min Rain = 0
KHA2 201609Z 27011KT 31/16 A3017 RMK A01 T03110156  RH  039%=      5-min Rain = 0
KHA2 201610Z 27011KT 31/16 A3017 RMK A01 T03100158  RH  040%=      5-min Rain = 0
KHA2 201611Z 27012KT 31/16 A3017 RMK A01 T03130158  RH  039%=      5-min Rain = 0
KHA2 201612Z 29013KT 31/16 A3017 RMK A01 T03130158  RH  039%=      5-min Rain = 0
KHA2 201613Z 28010KT 31/16 A3018 RMK A01 T03100157  RH  040%=      5-min Rain = 0
KHA2 201614Z 27012KT 31/16 A3018 RMK A01 T03100157  RH  040%=      5-min Rain = 0
KHA2 201615Z 26012KT 31/16 A3018 RMK A01 T03100157  RH  040%=      5-min Rain = 0
KHA2 201616Z 27009KT 31/16 A3018 RMK A01 T03100157  RH  040%=      5-min Rain = 0
KHA2 201617Z 28008KT 31/16 A3018 RMK A01 T03080156  RH  040%=      5-min Rain = 0
KHA2 201618Z 28011KT 31/16 A3018 RMK A01 T03060157  RH  040%=      5-min Rain = 0
KHA2 201619Z 27011KT 31/16 A3017 RMK A01 T03060156  RH  040%=      5-min Rain = 0
KHA2 201620Z 26012KT 31/16 A3018 RMK A01 T03050156  RH  040%=      5-min Rain = 0
KHA2 201621Z 25011KT 31/16 A3018 RMK A01 T03060156  RH  040%=      5-min Rain = 0
KHA2 201622Z 26011KT 31/16 A3017 RMK A01 T03070156  RH  040%=      5-min Rain = 0
KHA2 201623Z 26009KT 31/16 A3017 RMK A01 T03090157  RH  040%=      5-min Rain = 0
KHA2 201624Z 27009KT 31/16 A3017 RMK A01 T03110157  RH  039%=      5-min Rain = 0
KHA2 201625Z 28011KT 31/16 A3017 RMK A01 T03110157  RH  039%=      5-min Rain = 0
KHA2 201626Z 28011KT 31/16 A3018 RMK A01 T03090156  RH  040%=      5-min Rain = 0
KHA2 201627Z 29010KT 31/16 A3017 RMK A01 T03070156  RH  040%=      5-min Rain = 0
KHA2 201628Z 30010KT 31/16 A3017 RMK A01 T03070157  RH  040%=      5-min Rain = 0
KHA2 201629Z 29009KT 31/16 A3017 RMK A01 T03080157  RH  040%=      5-min Rain = 0
KHA2 201630Z 28008KT 31/16 A3017 RMK A01 T03090158  RH  040%=      5-min Rain = 0
KHA2 201631Z 28012KT 31/16 A3017 RMK A01 T03090157  RH  040%=      5-min Rain = 0
KHA2 201632Z 28015KT 31/16 A3017 RMK A01 T03090157  RH  040%=      5-min Rain = 0
KHA2 201633Z 26013KT 31/16 A3017 RMK A01 T03090157  RH  040%=      5-min Rain = 0
KHA2 201634Z 27012KT 31/16 A3017 RMK A01 T03080157  RH  040%=      5-min Rain = 0
KHA2 201635Z 27011KT 31/16 A3017 RMK A01 T03080157  RH  040%=      5-min Rain = 0
KHA2 201636Z 25009KT 31/16 A3017 RMK A01 T03080157  RH  040%=      5-min Rain = 0
KHA2 201637Z 26008KT 31/16 A3017 RMK A01 T03100157  RH  040%=      5-min Rain = 0
KHA2 201638Z 27009KT 31/16 A3017 RMK A01 T03100157  RH  040%=      5-min Rain = 0
KHA2 201639Z 28012KT 31/16 A3017 RMK A01 T03100157  RH  040%=      5-min Rain = 0
KHA2 201640Z 27013KT 31/16 A3017 RMK A01 T03100157  RH  040%=      5-min Rain = 0
KHA2 201641Z 26013KT 31/16 A3017 RMK A01 T03090157  RH  040%=      5-min Rain = 0
KHA2 201642Z 29010KT 31/16 A3017 RMK A01 T03090157  RH  040%=      5-min Rain = 0
KHA2 201643Z 27011KT 31/16 A3017 RMK A01 T03100157  RH  040%=      5-min Rain = 0
KHA2 201644Z 27009KT 31/16 A3017 RMK A01 T03110156  RH  039%=      5-min Rain = 0
KHA2 201645Z 28009KT 31/16 A3017 RMK A01 T03080155  RH  040%=      5-min Rain = 0
KHA2 201646Z 28009KT 31/16 A3017 RMK A01 T03070156  RH  040%=      5-min Rain = 0
KHA2 201647Z 28008KT 31/16 A3017 RMK A01 T03080156  RH  040%=      5-min Rain = 0
KHA2 201648Z 28011KT 31/16 A3017 RMK A01 T03110158  RH  040%=      5-min Rain = 0
KHA2 201649Z 26010KT 31/16 A3017 RMK A01 T03140157  RH  039%=      5-min Rain = 0
KHA2 201650Z 23010KT 31/16 A3017 RMK A01 T03140157  RH  039%=      5-min Rain = 0
KHA2 201651Z 24008KT 31/16 A3017 RMK A01 T03130156  RH  039%=      5-min Rain = 0
KHA2 201652Z 27009KT 31/16 A3018 RMK A01 T03130156  RH  039%=      5-min Rain = 0
KHA2 201653Z 26010KT 32/16 A3018 RMK A01 T03150157  RH  039%=      5-min Rain = 0
KHA2 201654Z 25009KT 32/16 A3018 RMK A01 T03160156  RH  038%=      5-min Rain = 0
KHA2 201655Z 25012KT 32/16 A3017 RMK A01 T03150157  RH  039%=      5-min Rain = 0
KHA2 201656Z 25010KT 31/16 A3018 RMK A01 T03140156  RH  038%=      5-min Rain = 0
KHA2 201657Z 25006KT 31/16 A3018 RMK A01 T03120156  RH  039%=      5-min Rain = 0
KHA2 201658Z 26008KT 31/16 A3018 RMK A01 T03110156  RH  039%=      5-min Rain = 0
KHA2 201659Z 26009KT 31/16 A3018 RMK A01 T03130157  RH  039%=      5-min Rain = 0
KHA2 201700Z 28009KT 32/16 A3018 RMK A01 T03160156  RH  038%=      5-min Rain = 0
KHA2 201701Z 28009KT 32/16 A3018 RMK A01 T03180157  RH  038%=      5-min Rain = 0
KHA2 201702Z 28006KT 32/16 A3017 RMK A01 T03160157  RH  038%=      5-min Rain = 0
KHA2 201703Z 29008KT 32/16 A3017 RMK A01 T03160156  RH  038%=      5-min Rain = 0
KHA2 201704Z 26007KT 32/16 A3017 RMK A01 T03160156  RH  038%=      5-min Rain = 0
KHA2 201705Z 27006KT 32/16 A3017 RMK A01 T03160156  RH  038%=      5-min Rain = 0
KHA2 201706Z 29005KT 32/16 A3017 RMK A01 T03160156  RH  038%=      5-min Rain = 0
KHA2 201707Z 28008KT 32/16 A3017 RMK A01 T03180158  RH  038%=      5-min Rain = 0
KHA2 201708Z 27005KT 32/16 A3017 RMK A01 T03200157  RH  037%=      5-min Rain = 0
KHA2 201709Z 27007KT 32/16 A3017 RMK A01 T03200157  RH  037%=      5-min Rain = 0
KHA2 201710Z 29008KT 32/16 A3017 RMK A01 T03190156  RH  037%=      5-min Rain = 0
KHA2 201711Z 30009KT 32/16 A3017 RMK A01 T03190157  RH  038%=      5-min Rain = 0
KHA2 201712Z 28007KT 32/16 A3017 RMK A01 T03180156  RH  038%=      5-min Rain = 0
KHA2 201713Z 28008KT 32/16 A3017 RMK A01 T03190157  RH  038%=      5-min Rain = 0
KHA2 201714Z 27010KT 32/16 A3017 RMK A01 T03210158  RH  037%=      5-min Rain = 0
KHA2 201715Z 28005KT 32/16 A3017 RMK A01 T03200156  RH  037%=      5-min Rain = 0
KHA2 201716Z 32007KT 32/16 A3017 RMK A01 T03170157  RH  038%=      5-min Rain = 0
KHA2 201717Z 32006KT 32/16 A3017 RMK A01 T03190158  RH  038%=      5-min Rain = 0
KHA2 201718Z 30005KT 32/16 A3017 RMK A01 T03220158  RH  037%=      5-min Rain = 0
KHA2 201719Z 29007KT 32/16 A3017 RMK A01 T03220158  RH  037%=      5-min Rain = 0
KHA2 201720Z 28008KT 32/16 A3017 RMK A01 T03230157  RH  037%=      5-min Rain = 0
KHA2 201721Z 24009KT 32/16 A3017 RMK A01 T03230156  RH  037%=      5-min Rain = 0
KHA2 201722Z 24010KT 33/16 A3017 RMK A01 T03250155  RH  036%=      5-min Rain = 0
KHA2 201723Z 25009KT 32/16 A3017 RMK A01 T03240156  RH  036%=      5-min Rain = 0
KHA2 201724Z 26007G12KT 32/16 A3017 RMK A01 T03240155  RH  036%=      5-min Rain = 0
KHA2 201725Z 27008KT 33/16 A3017 RMK A01 T03280159  RH  036%=      5-min Rain = 0
KHA2 201726Z 28009KT 33/16 A3017 RMK A01 T03330156  RH  035%=      5-min Rain = 0
KHA2 201727Z 29009KT 33/16 A3017 RMK A01 T03310157  RH  035%=      5-min Rain = 0
KHA2 201728Z 23007KT 33/16 A3017 RMK A01 T03290157  RH  035%=      5-min Rain = 0
KHA2 201729Z 25004KT 33/16 A3017 RMK A01 T03250155  RH  036%=      5-min Rain = 0
KHA2 201730Z 25005KT 32/16 A3017 RMK A01 T03230155  RH  036%=      5-min Rain = 0
KHA2 201731Z 27010KT 32/16 A3017 RMK A01 T03230156  RH  037%=      5-min Rain = 0
KHA2 201732Z 30007KT 32/16 A3017 RMK A01 T03220157  RH  037%=      5-min Rain = 0
KHA2 201733Z 27006KT 33/16 A3017 RMK A01 T03260158  RH  036%=      5-min Rain = 0
KHA2 201734Z 26004KT 33/16 A3017 RMK A01 T03260156  RH  036%=      5-min Rain = 0
KHA2 201735Z 27007G12KT 32/16 A3017 RMK A01 T03240158  RH  037%=      5-min Rain = 0
KHA2 201736Z 27009KT 33/16 A3017 RMK A01 T03300160  RH  036%=      5-min Rain = 0
KHA2 201737Z 26007KT 33/16 A3017 RMK A01 T03320159  RH  035%=      5-min Rain = 0
KHA2 201738Z 26008KT 33/16 A3017 RMK A01 T03320159  RH  035%=      5-min Rain = 0
KHA2 201739Z 24008KT 33/16 A3017 RMK A01 T03320157  RH  035%=      5-min Rain = 0
KHA2 201740Z 24010KT 33/16 A3017 RMK A01 T03340158  RH  035%=      5-min Rain = 0
KHA2 201741Z 25008KT 33/16 A3017 RMK A01 T03320159  RH  035%=      5-min Rain = 0
KHA2 201742Z 29008KT 33/16 A3017 RMK A01 T03300157  RH  035%=      5-min Rain = 0
KHA2 201743Z 29007KT 33/16 A3017 RMK A01 T03280156  RH  036%=      5-min Rain = 0
KHA2 201744Z 29008KT 33/16 A3017 RMK A01 T03290156  RH  036%=      5-min Rain = 0
KHA2 201745Z 29007KT 33/16 A3016 RMK A01 T03280156  RH  036%=      5-min Rain = 0
KHA2 201746Z 28005KT 33/16 A3016 RMK A01 T03310156  RH  035%=      5-min Rain = 0
KHA2 201747Z 27004KT 33/16 A3016 RMK A01 T03300155  RH  035%=      5-min Rain = 0
KHA2 201748Z 23007KT 33/15 A3016 RMK A01 T03290153  RH  035%=      5-min Rain = 0
KHA2 201749Z 24008KT 33/15 A3016 RMK A01 T03300153  RH  034%=      5-min Rain = 0
KHA2 201750Z 24012KT 33/15 A3016 RMK A01 T03320154  RH  034%=      5-min Rain = 0
KHA2 201751Z 24009KT 33/15 A3016 RMK A01 T03320147  RH  033%=      5-min Rain = 0
KHA2 201752Z 22009KT 33/15 A3016 RMK A01 T03320147  RH  033%=      5-min Rain = 0
KHA2 201753Z 22008KT 33/15 A3016 RMK A01 T03320148  RH  033%=      5-min Rain = 0
KHA2 201754Z 25011KT 33/15 A3016 RMK A01 T03320149  RH  033%=      5-min Rain = 0
KHA2 201755Z 25010KT 34/15 A3016 RMK A01 T03350148  RH  033%=      5-min Rain = 0
KHA2 201756Z 24007KT 33/15 A3016 RMK A01 T03340150  RH  033%=      5-min Rain = 0
KHA2 201757Z 25008G15KT 33/15 A3016 RMK A01 T03320150  RH  033%=      5-min Rain = 0
KHA2 201758Z 25011KT 33/15 A3016 RMK A01 T03320148  RH  033%=      5-min Rain = 0
KHA2 201759Z 27007KT 33/15 A3016 RMK A01 T03320146  RH  033%=      5-min Rain = 0
KHA2 201800Z 25008KT 33/15 A3016 RMK A01 T03320147  RH  033%=      5-min Rain = 0
KHA2 201801Z 25006KT 33/15 A3016 RMK A01 T03320149  RH  033%=      5-min Rain = 0
KHA2 201802Z 24006KT 33/15 A3016 RMK A01 T03320150  RH  034%=      5-min Rain = 0
KHA2 201803Z 25009KT 33/15 A3016 RMK A01 T03310150  RH  034%=      5-min Rain = 0
KHA2 201804Z 24010KT 33/15 A3016 RMK A01 T03330149  RH  033%=      5-min Rain = 0
KHA2 201805Z 22008KT 34/15 A3016 RMK A01 T03350149  RH  033%=      5-min Rain = 0
KHA2 201806Z 22005KT 33/15 A3016 RMK A01 T03320150  RH  034%=      5-min Rain = 0
KHA2 201807Z 23006KT 33/15 A3016 RMK A01 T03330152  RH  034%=      5-min Rain = 0
KHA2 201808Z 25009KT 33/15 A3016 RMK A01 T03340151  RH  033%=      5-min Rain = 0
KHA2 201809Z 25007G14KT 34/15 A3016 RMK A01 T03380152  RH  033%=      5-min Rain = 0
KHA2 201810Z 25007KT 34/15 A3016 RMK A01 T03410152  RH  032%=      5-min Rain = 0
KHA2 201811Z 22009KT 34/15 A3016 RMK A01 T03420151  RH  032%=      5-min Rain = 0
KHA2 201812Z 21011KT 34/15 A3016 RMK A01 T03420148  RH  031%=      5-min Rain = 0
KHA2 201813Z 21009KT 34/15 A3016 RMK A01 T03410148  RH  031%=      5-min Rain = 0
KHA2 201814Z 21012KT 34/15 A3015 RMK A01 T03400146  RH  031%=      5-min Rain = 0
KHA2 201815Z 21010KT 34/14 A3016 RMK A01 T03380142  RH  031%=      5-min Rain = 0
KHA2 201816Z 23010KT 34/14 A3016 RMK A01 T03370141  RH  031%=      5-min Rain = 0
KHA2 201817Z 24007KT 34/14 A3015 RMK A01 T03380139  RH  030%=      5-min Rain = 0
KHA2 201818Z 22006KT 34/14 A3015 RMK A01 T03380139  RH  030%=      5-min Rain = 0
KHA2 201819Z 21007KT 34/14 A3015 RMK A01 T03400143  RH  031%=      5-min Rain = 0
KHA2 201820Z 21008KT 35/15 A3015 RMK A01 T03450145  RH  030%=      5-min Rain = 0
KHA2 201821Z 23010KT 35/14 A3015 RMK A01 T03460144  RH  030%=      5-min Rain = 0
KHA2 201822Z 21009KT 34/14 A3015 RMK A01 T03440143  RH  030%=      5-min Rain = 0
KHA2 201823Z 21006KT 34/14 A3015 RMK A01 T03430139  RH  029%=      5-min Rain = 0
KHA2 201824Z 22003KT 34/14 A3015 RMK A01 T03390139  RH  030%=      5-min Rain = 0
KHA2 201825Z 22009KT 34/14 A3015 RMK A01 T03380142  RH  031%=      5-min Rain = 0
KHA2 201826Z 21011KT 34/15 A3015 RMK A01 T03440147  RH  031%=      5-min Rain = 0
KHA2 201827Z 21006KT 34/15 A3015 RMK A01 T03440145  RH  030%=      5-min Rain = 0
KHA2 201828Z 21009G14KT 34/15 A3015 RMK A01 T03440147  RH  031%=      5-min Rain = 0
KHA2 201829Z 19009KT 35/15 A3015 RMK A01 T03510146  RH  029%=      5-min Rain = 0
KHA2 201830Z 20007KT 35/15 A3015 RMK A01 T03510147  RH  030%=      5-min Rain = 0
KHA2 201831Z 21008KT 35/15 A3015 RMK A01 T03490148  RH  030%=      5-min Rain = 0
KHA2 201832Z 24009KT 35/14 A3015 RMK A01 T03500143  RH  029%=      5-min Rain = 0
KHA2 201833Z 24008G17KT 35/14 A3015 RMK A01 T03460141  RH  029%=      5-min Rain = 0
KHA2 201834Z 22014KT 35/14 A3015 RMK A01 T03460142  RH  029%=      5-min Rain = 0
KHA2 201835Z 21008KT 35/14 A3015 RMK A01 T03450143  RH  030%=      5-min Rain = 0
KHA2 201836Z 20006KT 34/14 A3015 RMK A01 T03420143  RH  030%=      5-min Rain = 0
KHA2 201837Z 23006G12KT 34/14 A3015 RMK A01 T03430142  RH  030%=      5-min Rain = 0
KHA2 201838Z 27009KT 35/15 A3014 RMK A01 T03470146  RH  030%=      5-min Rain = 0
KHA2 201839Z 27007KT 35/15 A3014 RMK A01 T03470145  RH  030%=      5-min Rain = 0
KHA2 201840Z 25005KT 34/15 A3015 RMK A01 T03430147  RH  031%=      5-min Rain = 0
KHA2 201841Z 21007KT 34/15 A3014 RMK A01 T03400146  RH  031%=      5-min Rain = 0
KHA2 201842Z 20006KT 34/15 A3014 RMK A01 T03400146  RH  031%=      5-min Rain = 0
KHA2 201843Z 21009KT 34/15 A3014 RMK A01 T03410147  RH  031%=      5-min Rain = 0
KHA2 201844Z 23009KT 34/15 A3014 RMK A01 T03440149  RH  031%=      5-min Rain = 0
KHA2 201845Z 24009KT 35/15 A3014 RMK A01 T03450149  RH  031%=      5-min Rain = 0
KHA2 201846Z 22005KT 34/15 A3014 RMK A01 T03420150  RH  031%=      5-min Rain = 0
KHA2 201847Z 27005KT 34/15 A3014 RMK A01 T03430149  RH  031%=      5-min Rain = 0
KHA2 201848Z 26008KT 35/15 A3014 RMK A01 T03460151  RH  031%=      5-min Rain = 0
KHA2 201849Z 25009KT 35/15 A3014 RMK A01 T03480153  RH  031%=      5-min Rain = 0
KHA2 201850Z 27009KT 35/15 A3014 RMK A01 T03500151  RH  031%=      5-min Rain = 0
KHA2 201851Z 29006KT 35/15 A3014 RMK A01 T03480151  RH  031%=      5-min Rain = 0
KHA2 201852Z 27007KT 35/15 A3014 RMK A01 T03460151  RH  031%=      5-min Rain = 0
KHA2 201853Z 26008KT 35/15 A3014 RMK A01 T03500153  RH  031%=      5-min Rain = 0
KHA2 201854Z 25006KT 35/15 A3014 RMK A01 T03520152  RH  030%=      5-min Rain = 0
KHA2 201855Z 25004KT 35/15 A3014 RMK A01 T03520154  RH  031%=      5-min Rain = 0
KHA2 201856Z 20004KT 36/15 A3013 RMK A01 T03550151  RH  030%=      5-min Rain = 0
KHA2 201857Z 21003KT 36/15 A3013 RMK A01 T03550146  RH  029%=      5-min Rain = 0
KHA2 201858Z 21005KT 35/15 A3013 RMK A01 T03540148  RH  029%=      5-min Rain = 0
KHA2 201859Z 22011KT 35/15 A3013 RMK A01 T03540146  RH  029%=      5-min Rain = 0
KHA2 201900Z 22009KT 35/14 A3013 RMK A01 T03520141  RH  028%=      5-min Rain = 0
KHA2 201901Z 22006KT 35/14 A3013 RMK A01 T03530142  RH  028%=      5-min Rain = 0
KHA2 201902Z 25006KT 35/14 A3013 RMK A01 T03540144  RH  028%=      5-min Rain = 0
KHA2 201903Z 23008KT 36/14 A3013 RMK A01 T03570142  RH  028%=      5-min Rain = 0
KHA2 201904Z 24007KT 35/14 A3013 RMK A01 T03520140  RH  028%=      5-min Rain = 0
KHA2 201905Z 25012KT 35/14 A3013 RMK A01 T03490140  RH  029%=      5-min Rain = 0
KHA2 201906Z 24014KT 35/14 A3013 RMK A01 T03520141  RH  028%=      5-min Rain = 0
KHA2 201907Z 25010KT 36/14 A3013 RMK A01 T03560140  RH  028%=      5-min Rain = 0
KHA2 201908Z 25010KT 36/14 A3013 RMK A01 T03550141  RH  028%=      5-min Rain = 0
KHA2 201909Z 24006KT 35/14 A3013 RMK A01 T03520141  RH  028%=      5-min Rain = 0
KHA2 201910Z 27007KT 35/14 A3013 RMK A01 T03490141  RH  029%=      5-min Rain = 0
KHA2 201911Z 27008KT 35/14 A3013 RMK A01 T03500143  RH  029%=      5-min Rain = 0
KHA2 201912Z 25007KT 35/14 A3013 RMK A01 T03490144  RH  029%=      5-min Rain = 0
KHA2 201913Z 23010KT 35/14 A3013 RMK A01 T03490142  RH  029%=      5-min Rain = 0
KHA2 201914Z 22012KT 35/14 A3013 RMK A01 T03520141  RH  028%=      5-min Rain = 0
KHA2 201915Z 21009G14KT 35/14 A3013 RMK A01 T03520141  RH  028%=      5-min Rain = 0
KHA2 201916Z 20010KT 35/14 A3013 RMK A01 T03530140  RH  028%=      5-min Rain = 0
KHA2 201917Z 22009KT 35/14 A3013 RMK A01 T03520138  RH  028%=      5-min Rain = 0
KHA2 201918Z 23007KT 35/14 A3013 RMK A01 T03540140  RH  028%=      5-min Rain = 0
KHA2 201919Z 24004KT 36/14 A3013 RMK A01 T03580140  RH  027%=      5-min Rain = 0
KHA2 201920Z 24005KT 35/14 A3013 RMK A01 T03530137  RH  027%=      5-min Rain = 0
KHA2 201921Z 20009G16KT 35/14 A3013 RMK A01 T03500137  RH  028%=      5-min Rain = 0
KHA2 201922Z 23012KT 35/13 A3013 RMK A01 T03540134  RH  027%=      5-min Rain = 0
KHA2 201923Z 24012KT 36/13 A3013 RMK A01 T03550133  RH  026%=      5-min Rain = 0
KHA2 201924Z 26008KT 35/13 A3013 RMK A01 T03510131  RH  027%=      5-min Rain = 0
KHA2 201925Z 25007G12KT 35/13 A3013 RMK A01 T03500131  RH  027%=      5-min Rain = 0
KHA2 201926Z 24011KT 35/13 A3012 RMK A01 T03500134  RH  027%=      5-min Rain = 0
KHA2 201927Z 25010KT 35/14 A3012 RMK A01 T03530135  RH  027%=      5-min Rain = 0
KHA2 201928Z 25008KT 35/13 A3012 RMK A01 T03500134  RH  027%=      5-min Rain = 0
KHA2 201929Z 25008KT 35/13 A3012 RMK A01 T03490132  RH  027%=      5-min Rain = 0
KHA2 201930Z 24009KT 35/13 A3012 RMK A01 T03510133  RH  027%=      5-min Rain = 0
KHA2 201931Z 22008KT 35/13 A3012 RMK A01 T03480132  RH  027%=      5-min Rain = 0
KHA2 201932Z 21012KT 35/14 A3012 RMK A01 T03490135  RH  028%=      5-min Rain = 0
KHA2 201933Z 20014KT 36/14 A3012 RMK A01 T03550135  RH  027%=      5-min Rain = 0
KHA2 201934Z 19014KT 35/13 A3012 RMK A01 T03540133  RH  026%=      5-min Rain = 0
KHA2 201935Z 18013KT 35/13 A3012 RMK A01 T03490132  RH  027%=      5-min Rain = 0
KHA2 201936Z 19009KT 35/13 A3012 RMK A01 T03460131  RH  027%=      5-min Rain = 0
KHA2 201937Z 19011KT 35/13 A3012 RMK A01 T03490131  RH  027%=      5-min Rain = 0
KHA2 201938Z 20009KT 35/13 A3012 RMK A01 T03500127  RH  026%=      5-min Rain = 0
KHA2 201939Z 24012KT 35/13 A3012 RMK A01 T03480134  RH  028%=      5-min Rain = 0
KHA2 201940Z 24011KT 35/14 A3012 RMK A01 T03460135  RH  028%=      5-min Rain = 0
KHA2 201941Z 23010KT 35/14 A3012 RMK A01 T03450136  RH  028%=      5-min Rain = 0
KHA2 201942Z 22010KT 35/14 A3012 RMK A01 T03460136  RH  028%=      5-min Rain = 0
KHA2 201943Z 22009KT 35/14 A3012 RMK A01 T03450136  RH  028%=      5-min Rain = 0
KHA2 201944Z 21011KT 35/14 A3012 RMK A01 T03470137  RH  028%=      5-min Rain = 0
KHA2 201945Z 21012KT 35/14 A3012 RMK A01 T03470135  RH  028%=      5-min Rain = 0
KHA2 201946Z 22009KT 35/13 A3012 RMK A01 T03470134  RH  028%=      5-min Rain = 0
KHA2 201947Z 21011KT 35/14 A3012 RMK A01 T03490137  RH  028%=      5-min Rain = 0
KHA2 201948Z 21016KT 35/14 A3012 RMK A01 T03490136  RH  028%=      5-min Rain = 0
KHA2 201949Z 19015KT 35/13 A3012 RMK A01 T03480134  RH  028%=      5-min Rain = 0
KHA2 201950Z 19015KT 35/13 A3012 RMK A01 T03470131  RH  027%=      5-min Rain = 0
KHA2 201951Z 20014KT 35/13 A3012 RMK A01 T03470129  RH  027%=      5-min Rain = 0
KHA2 201952Z 19012G17KT 35/13 A3012 RMK A01 T03450131  RH  027%=      5-min Rain = 0
KHA2 201953Z 18015KT 34/13 A3012 RMK A01 T03440132  RH  028%=      5-min Rain = 0
KHA2 201954Z 19016KT 34/13 A3012 RMK A01 T03410129  RH  028%=      5-min Rain = 0
KHA2 201955Z 18012KT 34/13 A3012 RMK A01 T03400128  RH  028%=      5-min Rain = 0
KHA2 201956Z 19015KT 34/13 A3012 RMK A01 T03400129  RH  028%=      5-min Rain = 0
KHA2 201957Z 19013KT 34/13 A3012 RMK A01 T03410130  RH  028%=      5-min Rain = 0
KHA2 201958Z 18015KT 34/13 A3012 RMK A01 T03410132  RH  028%=      5-min Rain = 0
KHA2 201959Z 18015KT 34/13 A3012 RMK A01 T03390129  RH  028%=      5-min Rain = 0
KHA2 202000Z 19015KT 34/13 A3012 RMK A01 T03370127  RH  028%=      5-min Rain = 0
KHA2 202001Z 20014KT 34/13 A3012 RMK A01 T03370131  RH  029%=      5-min Rain = 0
KHA2 202002Z 19013KT 34/13 A3012 RMK A01 T03370130  RH  029%=      5-min Rain = 0
KHA2 202003Z 18014KT 34/13 A3012 RMK A01 T03380129  RH  028%=      5-min Rain = 0
KHA2 202004Z 18014KT 34/13 A3012 RMK A01 T03370129  RH  028%=      5-min Rain = 0
KHA2 202005Z 18011KT 34/13 A3012 RMK A01 T03360128  RH  028%=      5-min Rain = 0
KHA2 202006Z 19013KT 34/13 A3012 RMK A01 T03360127  RH  028%=      5-min Rain = 0
KHA2 202007Z 19013KT 34/12 A3012 RMK A01 T03370123  RH  027%=      5-min Rain = 0
KHA2 202008Z 19013KT 34/12 A3012 RMK A01 T03380122  RH  027%=      5-min Rain = 0
KHA2 202009Z 18013KT 34/12 A3012 RMK A01 T03390122  RH  027%=      5-min Rain = 0
KHA2 202010Z 18010KT 34/12 A3012 RMK A01 T03380121  RH  027%=      5-min Rain = 0
KHA2 202011Z 19011KT 34/12 A3012 RMK A01 T03370121  RH  027%=      5-min Rain = 0
KHA2 202012Z 19012KT 34/12 A3012 RMK A01 T03370119  RH  027%=      5-min Rain = 0
KHA2 202013Z 19012KT 34/11 A3012 RMK A01 T03370113  RH  026%=      5-min Rain = 0
KHA2 202014Z 19014KT 34/11 A3012 RMK A01 T03380112  RH  025%=      5-min Rain = 0
KHA2 202015Z 19015KT 34/12 A3012 RMK A01 T03380120  RH  027%=      5-min Rain = 0
KHA2 202016Z 20013KT 34/13 A3012 RMK A01 T03360126  RH  028%=      5-min Rain = 0
KHA2 202017Z 20014KT 34/13 A3012 RMK A01 T03350126  RH  028%=      5-min Rain = 0
KHA2 202018Z 20013KT 34/12 A3012 RMK A01 T03360120  RH  027%=      5-min Rain = 0
KHA2 202019Z 19013KT 34/12 A3012 RMK A01 T03360122  RH  027%=      5-min Rain = 0
KHA2 202020Z 19015KT 34/12 A3012 RMK A01 T03360118  RH  027%=      5-min Rain = 0
KHA2 202021Z 19013KT 34/12 A3012 RMK A01 T03360115  RH  026%=      5-min Rain = 0
KHA2 202022Z 19013KT 34/12 A3012 RMK A01 T03360116  RH  026%=      5-min Rain = 0
KHA2 202023Z 20013KT 34/11 A3012 RMK A01 T03360112  RH  025%=      5-min Rain = 0
KHA2 202024Z 20014KT 34/12 A3012 RMK A01 T03390116  RH  026%=      5-min Rain = 0
KHA2 202025Z 20014KT 34/12 A3012 RMK A01 T03440121  RH  026%=      5-min Rain = 0
KHA2 202026Z 20015KT 35/12 A3012 RMK A01 T03450121  RH  026%=      5-min Rain = 0
KHA2 202027Z 20017KT 35/12 A3011 RMK A01 T03450117  RH  025%=      5-min Rain = 0
KHA2 202028Z 20015KT 35/11 A3011 RMK A01 T03460110  RH  024%=      5-min Rain = 0
KHA2 202029Z 19016KT 35/11 A3011 RMK A01 T03480113  RH  024%=      5-min Rain = 0
KHA2 202030Z 19015KT 35/12 A3011 RMK A01 T03470119  RH  025%=      5-min Rain = 0
KHA2 202031Z 20013KT 34/12 A3011 RMK A01 T03430119  RH  026%=      5-min Rain = 0
KHA2 202032Z 19013KT 34/12 A3011 RMK A01 T03430123  RH  026%=      5-min Rain = 0
KHA2 202033Z 18012KT 35/13 A3011 RMK A01 T03470125  RH  026%=      5-min Rain = 0
KHA2 202034Z 20015KT 35/13 A3011 RMK A01 T03490130  RH  027%=      5-min Rain = 0
KHA2 202035Z 19015KT 35/13 A3011 RMK A01 T03480134  RH  028%=      5-min Rain = 0
KHA2 202036Z 19013KT 35/13 A3011 RMK A01 T03470134  RH  028%=      5-min Rain = 0
KHA2 202037Z 18012KT 35/13 A3011 RMK A01 T03470134  RH  028%=      5-min Rain = 0
KHA2 202038Z 19015KT 35/14 A3011 RMK A01 T03500137  RH  028%=      5-min Rain = 0
KHA2 202039Z 19017KT 35/14 A3011 RMK A01 T03540138  RH  027%=      5-min Rain = 0
KHA2 202040Z 20013KT 35/13 A3011 RMK A01 T03510134  RH  027%=      5-min Rain = 0
KHA2 202041Z 19013KT 35/14 A3011 RMK A01 T03520135  RH  027%=      5-min Rain = 0
KHA2 202042Z 19014KT 36/14 A3011 RMK A01 T03560139  RH  027%=      5-min Rain = 0
KHA2 202043Z 19015KT 36/14 A3011 RMK A01 T03610142  RH  027%=      5-min Rain = 0
KHA2 202044Z 19015G20KT 36/14 A3011 RMK A01 T03610142  RH  027%=      5-min Rain = 0
KHA2 202045Z 20015KT 36/14 A3011 RMK A01 T03600140  RH  027%=      5-min Rain = 0
KHA2 202046Z 21014KT 35/14 A3011 RMK A01 T03540136  RH  027%=      5-min Rain = 0
KHA2 202047Z 21013KT 35/13 A3011 RMK A01 T03530134  RH  027%=      5-min Rain = 0
KHA2 202048Z 21011G16KT 35/13 A3011 RMK A01 T03530131  RH  026%=      5-min Rain = 0
KHA2 202049Z 19011KT 35/13 A3011 RMK A01 T03520132  RH  027%=      5-min Rain = 0
KHA2 202050Z 19011KT 35/13 A3011 RMK A01 T03540130  RH  026%=      5-min Rain = 0
KHA2 202051Z 20012KT 36/13 A3011 RMK A01 T03570132  RH  026%=      5-min Rain = 0
KHA2 202052Z 21011KT 36/13 A3011 RMK A01 T03580131  RH  026%=      5-min Rain = 0
KHA2 202053Z 20012KT 36/14 A301 RMK A01 T03610137  RH  026%=      5-min Rain = 0
KHA2 202054Z 21014KT 37/14 A301 RMK A01 T03650138  RH  026%=      5-min Rain = 0
KHA2 202055Z 21014KT 37/14 A301 RMK A01 T03650138  RH  026%=      5-min Rain = 0
KHA2 202056Z 22013KT 36/14 A301 RMK A01 T03620136  RH  026%=      5-min Rain = 0
KHA2 202057Z 22011KT 36/13 A301 RMK A01 T03580134  RH  026%=      5-min Rain = 0
KHA2 202058Z 21014KT 36/14 A301 RMK A01 T03560135  RH  027%=      5-min Rain = 0
KHA2 202059Z 19014KT 36/13 A301 RMK A01 T03570132  RH  026%=      5-min Rain = 0
KHA2 202100Z 19011KT 35/13 A301 RMK A01 T03540129  RH  026%=      5-min Rain = 0
KHA2 202101Z 20008KT 35/13 A301 RMK A01 T03540133  RH  027%=      5-min Rain = 0
KHA2 202102Z 22015KT 35/14 A301 RMK A01 T03540138  RH  027%=      5-min Rain = 0
KHA2 202103Z 22009G14KT 36/13 A301 RMK A01 T03560134  RH  026%=      5-min Rain = 0
KHA2 202104Z 22009KT 35/13 A301 RMK A01 T03530133  RH  027%=      5-min Rain = 0
KHA2 202105Z 22009KT 35/14 A301 RMK A01 T03520137  RH  028%=      5-min Rain = 0
KHA2 202106Z 19009KT 35/14 A301 RMK A01 T03540140  RH  028%=      5-min Rain = 0
KHA2 202107Z 17008KT 36/14 A301 RMK A01 T03580137  RH  027%=      5-min Rain = 0
KHA2 202108Z 19013G19KT 36/14 A301 RMK A01 T03570139  RH  027%=      5-min Rain = 0
KHA2 202109Z 19012KT 36/14 A301 RMK A01 T03570136  RH  027%=      5-min Rain = 0
KHA2 202110Z 18006KT 35/13 A301 RMK A01 T03530134  RH  027%=      5-min Rain = 0
KHA2 202111Z 19007G13KT 35/14 A301 RMK A01 T03510136  RH  027%=      5-min Rain = 0
KHA2 202112Z 19011KT 35/13 A301 RMK A01 T03530132  RH  026%=      5-min Rain = 0
KHA2 202113Z 18010KT 35/13 A301 RMK A01 T03520131  RH  027%=      5-min Rain = 0
KHA2 202114Z 18012G17KT 35/14 A301 RMK A01 T03520135  RH  027%=      5-min Rain = 0
KHA2 202115Z 18015KT 35/14 A301 RMK A01 T03540141  RH  028%=      5-min Rain = 0
KHA2 202116Z 18013KT 35/14 A301 RMK A01 T03500140  RH  028%=      5-min Rain = 0
KHA2 202117Z 17010KT 35/14 A3009 RMK A01 T03490141  RH  029%=      5-min Rain = 0
KHA2 202118Z 18010KT 35/14 A3009 RMK A01 T03470140  RH  029%=      5-min Rain = 0
KHA2 202119Z 17007KT 35/14 A3009 RMK A01 T03490143  RH  029%=      5-min Rain = 0
KHA2 202120Z 19008KT 35/15 A3009 RMK A01 T03500145  RH  029%=      5-min Rain = 0
KHA2 202121Z 18011G16KT 35/14 A3009 RMK A01 T03520142  RH  029%=      5-min Rain = 0
KHA2 202122Z 18010KT 36/14 A3009 RMK A01 T03570141  RH  028%=      5-min Rain = 0
KHA2 202123Z 20015KT 36/14 A3009 RMK A01 T03560141  RH  028%=      5-min Rain = 0
KHA2 202124Z 17014KT 36/14 A3009 RMK A01 T03560139  RH  027%=      5-min Rain = 0
KHA2 202125Z 17013KT 36/14 A3009 RMK A01 T03560141  RH  028%=      5-min Rain = 0
KHA2 202126Z 18014G19KT 35/14 A3009 RMK A01 T03530142  RH  028%=      5-min Rain = 0
KHA2 202127Z 18013KT 36/15 A3009 RMK A01 T03550145  RH  029%=      5-min Rain = 0
KHA2 202128Z 17013KT 36/15 A3009 RMK A01 T03550147  RH  029%=      5-min Rain = 0
KHA2 202129Z 17012G17KT 35/15 A3009 RMK A01 T03520147  RH  029%=      5-min Rain = 0
KHA2 202130Z 18007KT 35/15 A3009 RMK A01 T03500146  RH  029%=      5-min Rain = 0
KHA2 202131Z 19008KT 35/15 A3009 RMK A01 T03480145  RH  030%=      5-min Rain = 0
KHA2 202132Z 18010G17KT 35/15 A3009 RMK A01 T03480146  RH  030%=      5-min Rain = 0
KHA2 202133Z 19015KT 35/14 A3009 RMK A01 T03510137  RH  028%=      5-min Rain = 0
KHA2 202134Z 19012KT 35/14 A3009 RMK A01 T03530135  RH  027%=      5-min Rain = 0
KHA2 202135Z 19009KT 35/14 A3009 RMK A01 T03520137  RH  028%=      5-min Rain = 0
KHA2 202136Z 18013KT 35/14 A3009 RMK A01 T03510142  RH  029%=      5-min Rain = 0
KHA2 202137Z 19011G17KT 36/14 A3009 RMK A01 T03560142  RH  028%=      5-min Rain = 0
KHA2 202138Z 16011G17KT 36/14 A3009 RMK A01 T03560143  RH  028%=      5-min Rain = 0
KHA2 202139Z 16014KT 36/15 A3009 RMK A01 T03560145  RH  028%=      5-min Rain = 0
KHA2 202140Z 16010G15KT 35/15 A3009 RMK A01 T03540145  RH  029%=      5-min Rain = 0
KHA2 202141Z 15012KT 35/14 A3008 RMK A01 T03520144  RH  029%=      5-min Rain = 0
KHA2 202142Z 15011KT 35/15 A3008 RMK A01 T03520145  RH  029%=      5-min Rain = 0
KHA2 202143Z 16008KT 35/15 A3008 RMK A01 T03520145  RH  029%=      5-min Rain = 0
KHA2 202144Z 17012KT 35/14 A3008 RMK A01 T03510140  RH  028%=      5-min Rain = 0
KHA2 202145Z 16008KT 35/14 A3008 RMK A01 T03510135  RH  027%=      5-min Rain = 0
KHA2 202146Z 16005G10KT 35/14 A3008 RMK A01 T03490138  RH  028%=      5-min Rain = 0
KHA2 202147Z 20012G19KT 35/14 A3008 RMK A01 T03510141  RH  028%=      5-min Rain = 0
KHA2 202148Z 17016KT 36/15 A3008 RMK A01 T03560145  RH  028%=      5-min Rain = 0
KHA2 202149Z 16014KT 36/15 A3008 RMK A01 T03570146  RH  028%=      5-min Rain = 0
KHA2 202150Z 19015KT 36/15 A3008 RMK A01 T03580147  RH  028%=      5-min Rain = 0
KHA2 202151Z 18012G20KT 36/15 A3008 RMK A01 T03610146  RH  028%=      5-min Rain = 0
KHA2 202152Z 18015KT 36/14 A3008 RMK A01 T03600139  RH  027%=      5-min Rain = 0
KHA2 202153Z 18011KT 36/14 A3008 RMK A01 T03550140  RH  028%=      5-min Rain = 0
KHA2 202154Z 19010G15KT 35/14 A3008 RMK A01 T03530140  RH  028%=      5-min Rain = 0
KHA2 202155Z 18013KT 36/14 A3008 RMK A01 T03550142  RH  028%=      5-min Rain = 0
KHA2 202156Z 18012KT 36/14 A3008 RMK A01 T03590139  RH  027%=      5-min Rain = 0
KHA2 202157Z 16012KT 36/14 A3008 RMK A01 T03610137  RH  026%=      5-min Rain = 0
KHA2 202158Z 17010KT 36/14 A3008 RMK A01 T03600135  RH  026%=      5-min Rain = 0
KHA2 202159Z 18016KT 36/14 A3008 RMK A01 T03580138  RH  027%=      5-min Rain = 0
KHA2 202200Z 17012G18KT 35/14 A3008 RMK A01 T03540139  RH  028%=      5-min Rain = 0
KHA2 202201Z 17010KT 35/14 A3008 RMK A01 T03490140  RH  029%=      5-min Rain = 0
KHA2 202202Z 19012KT 35/14 A3007 RMK A01 T03490142  RH  029%=      5-min Rain = 0
KHA2 202203Z 17014KT 35/14 A3007 RMK A01 T03540144  RH  029%=      5-min Rain = 0
KHA2 202204Z 16014KT 36/14 A3007 RMK A01 T03570142  RH  028%=      5-min Rain = 0
KHA2 202205Z 16013KT 36/14 A3007 RMK A01 T03560141  RH  028%=      5-min Rain = 0
KHA2 202206Z 17010KT 36/14 A3007 RMK A01 T03560141  RH  028%=      5-min Rain = 0
KHA2 202207Z 18010KT 36/14 A3007 RMK A01 T03580143  RH  028%=      5-min Rain = 0
KHA2 202208Z 17013KT 36/14 A3007 RMK A01 T03590142  RH  027%=      5-min Rain = 0
KHA2 202209Z 16014KT 36/14 A3007 RMK A01 T03590143  RH  027%=      5-min Rain = 0
KHA2 202210Z 18014KT 36/14 A3007 RMK A01 T03600142  RH  027%=      5-min Rain = 0
KHA2 202211Z 17017G23KT 36/14 A3007 RMK A01 T03590144  RH  028%=      5-min Rain = 0
KHA2 202212Z 18016KT 36/14 A3007 RMK A01 T03560142  RH  028%=      5-min Rain = 0
KHA2 202213Z 19016KT 35/14 A3007 RMK A01 T03540140  RH  028%=      5-min Rain = 0
KHA2 202214Z 18014KT 35/14 A3007 RMK A01 T03530142  RH  028%=      5-min Rain = 0
KHA2 202215Z 16013KT 35/14 A3007 RMK A01 T03530141  RH  028%=      5-min Rain = 0
KHA2 202216Z 17015KT 35/14 A3007 RMK A01 T03530140  RH  028%=      5-min Rain = 0
KHA2 202217Z 16015KT 36/14 A3007 RMK A01 T03550137  RH  027%=      5-min Rain = 0
KHA2 202218Z 15014KT 36/14 A3007 RMK A01 T03560139  RH  027%=      5-min Rain = 0
KHA2 202219Z 16015KT 35/14 A3007 RMK A01 T03530138  RH  028%=      5-min Rain = 0
KHA2 202220Z 18011KT 35/14 A3007 RMK A01 T03510138  RH  028%=      5-min Rain = 0
KHA2 202221Z 20011KT 35/14 A3007 RMK A01 T03520140  RH  028%=      5-min Rain = 0
KHA2 202222Z 18010KT 36/14 A3007 RMK A01 T03550141  RH  028%=      5-min Rain = 0
KHA2 202223Z 16012KT 36/14 A3007 RMK A01 T03580141  RH  027%=      5-min Rain = 0
KHA2 202224Z 17011KT 36/14 A3007 RMK A01 T03570142  RH  028%=      5-min Rain = 0
KHA2 202225Z 17012KT 36/14 A3007 RMK A01 T03560141  RH  028%=      5-min Rain = 0
KHA2 202226Z 18012KT 35/14 A3007 RMK A01 T03540140  RH  028%=      5-min Rain = 0
KHA2 202227Z 17012KT 36/14 A3007 RMK A01 T03550135  RH  027%=      5-min Rain = 0
KHA2 202228Z 17012KT 36/13 A3007 RMK A01 T03550127  RH  025%=      5-min Rain = 0
KHA2 202229Z 18013KT 36/13 A3007 RMK A01 T03550133  RH  026%=      5-min Rain = 0
KHA2 202230Z 19011KT 35/14 A3007 RMK A01 T03540138  RH  027%=      5-min Rain = 0
KHA2 202231Z 17009KT 35/14 A3007 RMK A01 T03530139  RH  028%=      5-min Rain = 0
KHA2 202232Z 17008KT 35/14 A3007 RMK A01 T03540139  RH  028%=      5-min Rain = 0
KHA2 202233Z 18009KT 35/14 A3007 RMK A01 T03520139  RH  028%=      5-min Rain = 0
KHA2 202234Z 17011KT 35/14 A3007 RMK A01 T03520139  RH  028%=      5-min Rain = 0
KHA2 202235Z 16012KT 36/14 A3007 RMK A01 T03550143  RH  028%=      5-min Rain = 0
KHA2 202236Z 15011KT 36/14 A3007 RMK A01 T03600144  RH  028%=      5-min Rain = 0
KHA2 202237Z 15010KT 36/14 A3007 RMK A01 T03600142  RH  027%=      5-min Rain = 0
KHA2 202238Z 15010KT 36/14 A3007 RMK A01 T03570141  RH  028%=      5-min Rain = 0
KHA2 202239Z 15011G16KT 36/14 A3007 RMK A01 T03560141  RH  028%=      5-min Rain = 0
KHA2 202240Z 17014KT 36/14 A3007 RMK A01 T03560138  RH  027%=      5-min Rain = 0
KHA2 202241Z 18012KT 36/13 A3007 RMK A01 T03580132  RH  026%=      5-min Rain = 0
KHA2 202242Z 18014KT 36/13 A3007 RMK A01 T03590126  RH  025%=      5-min Rain = 0
KHA2 202243Z 19013KT 36/13 A3007 RMK A01 T03620130  RH  025%=      5-min Rain = 0
KHA2 202244Z 20011KT 36/13 A3007 RMK A01 T03590128  RH  025%=      5-min Rain = 0
KHA2 202245Z 19013KT 36/13 A3007 RMK A01 T03570126  RH  025%=      5-min Rain = 0
KHA2 202246Z 21011KT 36/13 A3007 RMK A01 T03580125  RH  025%=      5-min Rain = 0
KHA2 202247Z 20011KT 36/13 A3007 RMK A01 T03610125  RH  024%=      5-min Rain = 0
KHA2 202248Z 19011KT 36/13 A3007 RMK A01 T03640126  RH  024%=      5-min Rain = 0
KHA2 202249Z 18013G18KT 37/12 A3007 RMK A01 T03650119  RH  023%=      5-min Rain = 0
KHA2 202250Z 17016KT 36/11 A3007 RMK A01 T03640112  RH  022%=      5-min Rain = 0
KHA2 202251Z 17013KT 36/11 A3007 RMK A01 T03590113  RH  023%=      5-min Rain = 0
KHA2 202252Z 17012KT 36/11 A3007 RMK A01 T03570112  RH  023%=      5-min Rain = 0
KHA2 202253Z 17009KT 36/10 A3007 RMK A01 T03550104  RH  022%=      5-min Rain = 0
KHA2 202254Z 17009KT 35/11 A3007 RMK A01 T03530112  RH  023%=      5-min Rain = 0
KHA2 202255Z 16011KT 35/12 A3007 RMK A01 T03540121  RH  025%=      5-min Rain = 0
KHA2 202256Z 15010KT 35/13 A3007 RMK A01 T03510126  RH  026%=      5-min Rain = 0
KHA2 202257Z 16013KT 35/13 A3007 RMK A01 T03490126  RH  026%=      5-min Rain = 0
KHA2 202258Z 16015KT 35/12 A3007 RMK A01 T03470124  RH  026%=      5-min Rain = 0
KHA2 202259Z 15013KT 35/13 A3007 RMK A01 T03480126  RH  026%=      5-min Rain = 0
KHA2 202300Z 16012KT 35/13 A3007 RMK A01 T03490126  RH  026%=      5-min Rain = 0
KHA2 202301Z 17015KT 35/12 A3007 RMK A01 T03510123  RH  025%=      5-min Rain = 0
KHA2 202302Z 16012KT 35/12 A3007 RMK A01 T03510124  RH  025%=      5-min Rain = 0
KHA2 202303Z 17011KT 35/13 A3007 RMK A01 T03510125  RH  026%=      5-min Rain = 0
KHA2 202304Z 16012KT 35/12 A3007 RMK A01 T03520123  RH  025%=      5-min Rain = 0
KHA2 202305Z 16010KT 35/12 A3007 RMK A01 T03530121  RH  025%=      5-min Rain = 0
KHA2 202306Z 18008KT 35/12 A3007 RMK A01 T03530116  RH  024%=      5-min Rain = 0
KHA2 202307Z 18010KT 35/12 A3007 RMK A01 T03530119  RH  024%=      5-min Rain = 0
KHA2 202308Z 17016KT 36/12 A3006 RMK A01 T03570123  RH  024%=      5-min Rain = 0
KHA2 202309Z 17014KT 36/13 A3007 RMK A01 T03560126  RH  025%=      5-min Rain = 0
KHA2 202310Z 17015KT 36/13 A3007 RMK A01 T03560127  RH  025%=      5-min Rain = 0
KHA2 202311Z 17014KT 36/13 A3007 RMK A01 T03560127  RH  025%=      5-min Rain = 0
KHA2 202312Z 17010KT 36/13 A3007 RMK A01 T03560126  RH  025%=      5-min Rain = 0
KHA2 202313Z 19012KT 36/12 A3007 RMK A01 T03570124  RH  025%=      5-min Rain = 0
KHA2 202314Z 18013KT 36/12 A3007 RMK A01 T03570120  RH  024%=      5-min Rain = 0
KHA2 202315Z 19012KT 36/12 A3007 RMK A01 T03560120  RH  024%=      5-min Rain = 0
KHA2 202316Z 19014KT 36/12 A3007 RMK A01 T03570119  RH  024%=      5-min Rain = 0
KHA2 202317Z 20010KT 36/12 A3007 RMK A01 T03570122  RH  024%=      5-min Rain = 0
KHA2 202318Z 20009KT 36/12 A3007 RMK A01 T03570123  RH  025%=      5-min Rain = 0
KHA2 202319Z 18010KT 36/13 A3007 RMK A01 T03560129  RH  025%=      5-min Rain = 0
KHA2 202320Z 17011KT 36/13 A3007 RMK A01 T03560130  RH  026%=      5-min Rain = 0
KHA2 202321Z 15012KT 36/13 A3007 RMK A01 T03560125  RH  025%=      5-min Rain = 0
KHA2 202322Z 16014KT 36/13 A3007 RMK A01 T03570125  RH  025%=      5-min Rain = 0
KHA2 202323Z 16010KT 36/13 A3007 RMK A01 T03550126  RH  025%=      5-min Rain = 0
KHA2 202324Z 17009KT 36/13 A3007 RMK A01 T03560127  RH  025%=      5-min Rain = 0
KHA2 202325Z 17012KT 36/13 A3007 RMK A01 T03580126  RH  025%=      5-min Rain = 0
KHA2 202326Z 16013KT 36/13 A3007 RMK A01 T03580127  RH  025%=      5-min Rain = 0
KHA2 202327Z 17015KT 36/13 A3007 RMK A01 T03550130  RH  026%=      5-min Rain = 0
KHA2 202328Z 18010KT 36/13 A3007 RMK A01 T03550134  RH  027%=      5-min Rain = 0
KHA2 202329Z 18012KT 36/14 A3007 RMK A01 T03560136  RH  027%=      5-min Rain = 0
KHA2 202330Z 19012KT 36/14 A3007 RMK A01 T03560135  RH  027%=      5-min Rain = 0
KHA2 202331Z 21016KT 36/14 A3007 RMK A01 T03560135  RH  027%=      5-min Rain = 0
KHA2 202332Z 21012KT 36/13 A3007 RMK A01 T03550134  RH  027%=      5-min Rain = 0
KHA2 202333Z 19012G17KT 36/14 A3007 RMK A01 T03570135  RH  026%=      5-min Rain = 0
KHA2 202334Z 16009KT 36/13 A3007 RMK A01 T03580131  RH  025%=      5-min Rain = 0
KHA2 202335Z 18015KT 36/13 A3007 RMK A01 T03590133  RH  026%=      5-min Rain = 0
KHA2 202336Z 20012KT 35/14 A3007 RMK A01 T03540135  RH  027%=      5-min Rain = 0
KHA2 202337Z 19013KT 35/13 A3007 RMK A01 T03540134  RH  027%=      5-min Rain = 0
KHA2 202338Z 21012KT 36/14 A3007 RMK A01 T03570136  RH  027%=      5-min Rain = 0
KHA2 202339Z 20012KT 36/14 A3007 RMK A01 T03570135  RH  026%=      5-min Rain = 0
KHA2 202340Z 19011KT 36/13 A3007 RMK A01 T03560134  RH  026%=      5-min Rain = 0
KHA2 202341Z 19013KT 35/13 A3007 RMK A01 T03540134  RH  027%=      5-min Rain = 0
KHA2 202342Z 18012KT 35/13 A3007 RMK A01 T03540134  RH  027%=      5-min Rain = 0
KHA2 202343Z 19013KT 35/14 A3007 RMK A01 T03540135  RH  027%=      5-min Rain = 0
KHA2 202344Z 18010KT 35/13 A3008 RMK A01 T03530134  RH  027%=      5-min Rain = 0
KHA2 202345Z 18012KT 35/13 A3007 RMK A01 T03530134  RH  027%=      5-min Rain = 0
KHA2 202346Z 18014KT 35/13 A3008 RMK A01 T03530134  RH  027%=      5-min Rain = 0
KHA2 202347Z 18011KT 35/14 A3008 RMK A01 T03510135  RH  027%=      5-min Rain = 0
KHA2 202348Z 19015KT 35/14 A3007 RMK A01 T03510136  RH  028%=      5-min Rain = 0
KHA2 202349Z 19013KT 35/14 A3008 RMK A01 T03520137  RH  027%=      5-min Rain = 0
KHA2 202350Z 20010KT 35/14 A3008 RMK A01 T03530136  RH  027%=      5-min Rain = 0
KHA2 202351Z 19008KT 35/14 A3008 RMK A01 T03510135  RH  027%=      5-min Rain = 0
KHA2 202352Z 21010KT 35/14 A3008 RMK A01 T03500135  RH  027%=      5-min Rain = 0
KHA2 202353Z 22013KT 35/13 A3007 RMK A01 T03520133  RH  027%=      5-min Rain = 0
KHA2 202354Z 21014KT 35/13 A3008 RMK A01 T03520131  RH  027%=      5-min Rain = 0
KHA2 202355Z 19016KT 35/13 A3008 RMK A01 T03520132  RH  027%=      5-min Rain = 0
KHA2 202356Z 19015KT 35/13 A3008 RMK A01 T03520133  RH  027%=      5-min Rain = 0
KHA2 202357Z 19012KT 35/13 A3008 RMK A01 T03510132  RH  027%=      5-min Rain = 0
KHA2 202358Z 20012KT 35/13 A3008 RMK A01 T03510131  RH  027%=      5-min Rain = 0
KHA2 202359Z 20013KT 35/13 A3008 RMK A01 T03520129  RH  026%=      5-min Rain = 0
KHA2 210000Z 20013KT 35/13 A3008 RMK A01 T03520129  RH  026%=      5-min Rain = 0
KHA2 210001Z 20013KT 35/13 A3008 RMK A01 T03510128  RH  026%=      5-min Rain = 0
KHA2 210002Z 19012KT 35/13 A3008 RMK A01 T03520129  RH  026%=      5-min Rain = 0
KHA2 210003Z 19013KT 35/13 A3008 RMK A01 T03530132  RH  026%=      5-min Rain = 0
KHA2 210004Z 19011KT 35/13 A3008 RMK A01 T03520133  RH  027%=      5-min Rain = 0
KHA2 210005Z 18012KT 35/13 A3008 RMK A01 T03530134  RH  027%=      5-min Rain = 0
KHA2 210006Z 18011KT 35/13 A3008 RMK A01 T03530133  RH  027%=      5-min Rain = 0
KHA2 210007Z 18013KT 35/13 A3008 RMK A01 T03520134  RH  027%=      5-min Rain = 0
KHA2 210008Z 19014KT 35/13 A3008 RMK A01 T03500133  RH  027%=      5-min Rain = 0
KHA2 210009Z 20014KT 35/13 A3008 RMK A01 T03490133  RH  027%=      5-min Rain = 0
KHA2 210010Z 18012KT 35/13 A3008 RMK A01 T03490133  RH  027%=      5-min Rain = 0
KHA2 210011Z 20011G16KT 35/13 A3008 RMK A01 T03500134  RH  027%=      5-min Rain = 0
KHA2 210012Z 18013KT 35/14 A3008 RMK A01 T03510135  RH  027%=      5-min Rain = 0
KHA2 210013Z 18014KT 35/14 A3008 RMK A01 T03500135  RH  028%=      5-min Rain = 0
KHA2 210014Z 17011KT 35/13 A3008 RMK A01 T03480134  RH  028%=      5-min Rain = 0
KHA2 210015Z 17012KT 35/13 A3008 RMK A01 T03480134  RH  028%=      5-min Rain = 0
KHA2 210016Z 17012KT 35/13 A3008 RMK A01 T03470133  RH  028%=      5-min Rain = 0
KHA2 210017Z 17010KT 35/13 A3008 RMK A01 T03460132  RH  028%=      5-min Rain = 0
KHA2 210018Z 18010KT 35/13 A3008 RMK A01 T03450132  RH  028%=      5-min Rain = 0
KHA2 210019Z 18009KT 35/13 A3008 RMK A01 T03460132  RH  028%=      5-min Rain = 0
KHA2 210020Z 17015KT 35/13 A3008 RMK A01 T03460132  RH  028%=      5-min Rain = 0
KHA2 210021Z 20013G22KT 35/13 A3008 RMK A01 T03460131  RH  027%=      5-min Rain = 0
KHA2 210022Z 19012KT 35/13 A3008 RMK A01 T03470130  RH  027%=      5-min Rain = 0
KHA2 210023Z 18015KT 35/13 A3008 RMK A01 T03480130  RH  027%=      5-min Rain = 0
KHA2 210024Z 19014KT 35/13 A3008 RMK A01 T03460129  RH  027%=      5-min Rain = 0
KHA2 210025Z 19012KT 35/13 A3008 RMK A01 T03450129  RH  027%=      5-min Rain = 0
KHA2 210026Z 19013KT 34/13 A3008 RMK A01 T03440129  RH  027%=      5-min Rain = 0
KHA2 210027Z 18012KT 34/13 A3007 RMK A01 T03430130  RH  028%=      5-min Rain = 0
KHA2 210028Z 18011KT 34/13 A3007 RMK A01 T03420129  RH  028%=      5-min Rain = 0
KHA2 210029Z 18014KT 34/13 A3007 RMK A01 T03410130  RH  028%=      5-min Rain = 0
KHA2 210030Z 18014KT 34/13 A3007 RMK A01 T03390131  RH  028%=      5-min Rain = 0
KHA2 210031Z 18012KT 34/13 A3007 RMK A01 T03380130  RH  028%=      5-min Rain = 0
KHA2 210032Z 18012KT 34/13 A3007 RMK A01 T03370130  RH  029%=      5-min Rain = 0
KHA2 210033Z 18011KT 34/13 A3007 RMK A01 T03370130  RH  029%=      5-min Rain = 0
KHA2 210034Z 19010G15KT 34/13 A3007 RMK A01 T03370130  RH  029%=      5-min Rain = 0
KHA2 210035Z 19014KT 34/13 A3007 RMK A01 T03370132  RH  029%=      5-min Rain = 0
KHA2 210036Z 18012KT 34/13 A3007 RMK A01 T03370133  RH  029%=      5-min Rain = 0
KHA2 210037Z 18011KT 34/13 A3007 RMK A01 T03370133  RH  029%=      5-min Rain = 0
KHA2 210038Z 18012KT 34/13 A3007 RMK A01 T03370134  RH  029%=      5-min Rain = 0
KHA2 210039Z 18012KT 34/13 A3007 RMK A01 T03360133  RH  029%=      5-min Rain = 0
KHA2 210040Z 18011KT 34/13 A3007 RMK A01 T03350133  RH  030%=      5-min Rain = 0
KHA2 210041Z 18011KT 33/13 A3007 RMK A01 T03340134  RH  030%=      5-min Rain = 0
KHA2 210042Z 18010KT 33/13 A3007 RMK A01 T03340134  RH  030%=      5-min Rain = 0
KHA2 210043Z 18011KT 33/13 A3007 RMK A01 T03330133  RH  030%=      5-min Rain = 0
KHA2 210044Z 18013KT 33/13 A3007 RMK A01 T03330133  RH  030%=      5-min Rain = 0
KHA2 210045Z 19011KT 33/13 A3007 RMK A01 T03330133  RH  030%=      5-min Rain = 0
KHA2 210046Z 18011KT 33/13 A3007 RMK A01 T03320133  RH  030%=      5-min Rain = 0
KHA2 210047Z 18011KT 33/13 A3007 RMK A01 T03320132  RH  030%=      5-min Rain = 0
KHA2 210048Z 18011KT 33/13 A3007 RMK A01 T03320132  RH  030%=      5-min Rain = 0
KHA2 210049Z 18011KT 33/13 A3007 RMK A01 T03310132  RH  030%=      5-min Rain = 0
KHA2 210050Z 18013KT 33/13 A3007 RMK A01 T03310132  RH  030%=      5-min Rain = 0
KHA2 210051Z 18012KT 33/13 A3007 RMK A01 T03310133  RH  030%=      5-min Rain = 0
KHA2 210052Z 18012KT 33/13 A3007 RMK A01 T03300134  RH  030%=      5-min Rain = 0
KHA2 210053Z 18012KT 33/13 A3007 RMK A01 T03300134  RH  031%=      5-min Rain = 0
KHA2 210054Z 19012KT 33/13 A3007 RMK A01 T03300134  RH  031%=      5-min Rain = 0
KHA2 210055Z 19011KT 33/13 A3007 RMK A01 T03300134  RH  030%=      5-min Rain = 0
KHA2 210056Z 18012KT 33/13 A3008 RMK A01 T03300134  RH  031%=      5-min Rain = 0
KHA2 210057Z 18012KT 33/13 A3008 RMK A01 T03290134  RH  031%=      5-min Rain = 0
KHA2 210058Z 18011KT 33/14 A3008 RMK A01 T03290135  RH  031%=      5-min Rain = 0
KHA2 210059Z 18012KT 33/13 A3008 RMK A01 T03280134  RH  031%=      5-min Rain = 0
KHA2 210100Z 18013KT 33/13 A3008 RMK A01 T03270134  RH  031%=      5-min Rain = 0
KHA2 210101Z 18013KT 33/14 A3008 RMK A01 T03280135  RH  031%=      5-min Rain = 0
KHA2 210102Z 18014KT 33/13 A3008 RMK A01 T03270134  RH  031%=      5-min Rain = 0
KHA2 210103Z 18014KT 33/13 A3008 RMK A01 T03270134  RH  031%=      5-min Rain = 0
KHA2 210104Z 18012KT 33/13 A3008 RMK A01 T03270134  RH  031%=      5-min Rain = 0
KHA2 210105Z 18013KT 33/13 A3008 RMK A01 T03270134  RH  031%=      5-min Rain = 0
KHA2 210106Z 18013KT 33/13 A3008 RMK A01 T03260134  RH  031%=      5-min Rain = 0
KHA2 210107Z 18011KT 33/13 A3008 RMK A01 T03260134  RH  031%=      5-min Rain = 0
KHA2 210108Z 18012KT 33/13 A3008 RMK A01 T03250134  RH  031%=      5-min Rain = 0
KHA2 210109Z 18012KT 33/13 A3008 RMK A01 T03250134  RH  031%=      5-min Rain = 0
KHA2 210110Z 18011KT 32/13 A3008 RMK A01 T03240133  RH  031%=      5-min Rain = 0
KHA2 210111Z 19012KT 32/13 A3008 RMK A01 T03240133  RH  032%=      5-min Rain = 0
KHA2 210112Z 18011KT 32/13 A3008 RMK A01 T03230133  RH  032%=      5-min Rain = 0
KHA2 210113Z 18010KT 32/13 A3008 RMK A01 T03230133  RH  031%=      5-min Rain = 0
KHA2 210114Z 18010KT 32/13 A3008 RMK A01 T03220132  RH  031%=      5-min Rain = 0
KHA2 210115Z 18010KT 32/13 A3008 RMK A01 T03210132  RH  032%=      5-min Rain = 0
KHA2 210116Z 18010KT 32/13 A3008 RMK A01 T03210131  RH  032%=      5-min Rain = 0
KHA2 210117Z 18011KT 32/13 A3008 RMK A01 T03200131  RH  032%=      5-min Rain = 0
KHA2 210118Z 18011KT 32/13 A3008 RMK A01 T03200130  RH  032%=      5-min Rain = 0
KHA2 210119Z 18009KT 32/13 A3008 RMK A01 T03200130  RH  031%=      5-min Rain = 0
KHA2 210120Z 18010KT 32/13 A3009 RMK A01 T03190130  RH  032%=      5-min Rain = 0
KHA2 210121Z 18010KT 32/13 A3009 RMK A01 T03180129  RH  032%=      5-min Rain = 0
KHA2 210122Z 18010KT 32/13 A3009 RMK A01 T03180129  RH  032%=      5-min Rain = 0
KHA2 210123Z 18010KT 32/13 A3009 RMK A01 T03170128  RH  032%=      5-min Rain = 0
KHA2 210124Z 18009KT 32/13 A3009 RMK A01 T03150128  RH  032%=      5-min Rain = 0
KHA2 210125Z 17009KT 32/13 A3009 RMK A01 T03150128  RH  032%=      5-min Rain = 0
KHA2 210126Z 18009KT 31/13 A3009 RMK A01 T03140128  RH  032%=      5-min Rain = 0
KHA2 210127Z 17009KT 31/13 A3009 RMK A01 T03140128  RH  032%=      5-min Rain = 0
KHA2 210128Z 17009KT 31/13 A3009 RMK A01 T03130127  RH  032%=      5-min Rain = 0
KHA2 210129Z 17009KT 31/13 A3009 RMK A01 T03120127  RH  032%=      5-min Rain = 0
KHA2 210130Z 17008KT 31/13 A3009 RMK A01 T03110126  RH  032%=      5-min Rain = 0
KHA2 210131Z 17008KT 31/13 A3009 RMK A01 T03100126  RH  032%=      5-min Rain = 0
KHA2 210132Z 17008KT 31/13 A3009 RMK A01 T03100126  RH  032%=      5-min Rain = 0
KHA2 210133Z 17008KT 31/13 A3009 RMK A01 T03090126  RH  033%=      5-min Rain = 0
KHA2 210134Z 17008KT 31/13 A3009 RMK A01 T03090125  RH  032%=      5-min Rain = 0
KHA2 210135Z 17008KT 31/13 A301 RMK A01 T03090125  RH  032%=      5-min Rain = 0
KHA2 210136Z 17008KT 31/12 A301 RMK A01 T03090124  RH  032%=      5-min Rain = 0
KHA2 210137Z 17008KT 31/12 A301 RMK A01 T03080124  RH  032%=      5-min Rain = 0
KHA2 210138Z 17008KT 31/12 A301 RMK A01 T03080124  RH  032%=      5-min Rain = 0
KHA2 210139Z 16008KT 31/12 A301 RMK A01 T03080124  RH  032%=      5-min Rain = 0
KHA2 210140Z 16008KT 31/12 A301 RMK A01 T03070124  RH  032%=      5-min Rain = 0
KHA2 210141Z 17008KT 31/12 A301 RMK A01 T03070123  RH  032%=      5-min Rain = 0
KHA2 210142Z 17007KT 31/12 A301 RMK A01 T03060122  RH  032%=      5-min Rain = 0
KHA2 210143Z 17007KT 31/12 A301 RMK A01 T03050122  RH  032%=      5-min Rain = 0
KHA2 210144Z 17007KT 31/12 A301 RMK A01 T03050122  RH  032%=      5-min Rain = 0
KHA2 210145Z 17008KT 31/12 A301 RMK A01 T03050122  RH  032%=      5-min Rain = 0
KHA2 210146Z 17007KT 31/12 A301 RMK A01 T03050122  RH  032%=      5-min Rain = 0
KHA2 210147Z 17008KT 31/12 A301 RMK A01 T03050121  RH  032%=      5-min Rain = 0
KHA2 210148Z 17008KT 31/12 A301 RMK A01 T03050121  RH  032%=      5-min Rain = 0
KHA2 210149Z 17007KT 31/12 A301 RMK A01 T03050121  RH  032%=      5-min Rain = 0
KHA2 210150Z 17008KT 30/12 A301 RMK A01 T03040120  RH  032%=      5-min Rain = 0
KHA2 210151Z 17008KT 30/12 A301 RMK A01 T03040120  RH  032%=      5-min Rain = 0
KHA2 210152Z 17008KT 30/12 A301 RMK A01 T03040120  RH  032%=      5-min Rain = 0
KHA2 210153Z 17008KT 30/12 A301 RMK A01 T03040120  RH  032%=      5-min Rain = 0
KHA2 210154Z 17008KT 30/12 A301 RMK A01 T03030119  RH  032%=      5-min Rain = 0
KHA2 210155Z 17008KT 30/12 A301 RMK A01 T03030119  RH  032%=      5-min Rain = 0
KHA2 210156Z 17007KT 30/12 A301 RMK A01 T03030119  RH  032%=      5-min Rain = 0
KHA2 210157Z 17007KT 30/12 A301 RMK A01 T03020119  RH  032%=      5-min Rain = 0
KHA2 210158Z 17008KT 30/12 A301 RMK A01 T03010119  RH  033%=      5-min Rain = 0
KHA2 210159Z 17008KT 30/12 A301 RMK A01 T03010119  RH  033%=      5-min Rain = 0
KHA2 210200Z 18008KT 30/12 A301 RMK A01 T03000118  RH  033%=      5-min Rain = 0
KHA2 210201Z 18008KT 30/12 A301 RMK A01 T03000119  RH  033%=      5-min Rain = 0
KHA2 210202Z 18008KT 30/12 A301 RMK A01 T02990119  RH  033%=      5-min Rain = 0
KHA2 210203Z 18008KT 30/12 A301 RMK A01 T02990118  RH  033%=      5-min Rain = 0
KHA2 210204Z 17008KT 30/12 A301 RMK A01 T02980118  RH  033%=      5-min Rain = 0
KHA2 210205Z 18008KT 30/12 A301 RMK A01 T02970118  RH  033%=      5-min Rain = 0
KHA2 210206Z 18008KT 30/12 A301 RMK A01 T02970117  RH  033%=      5-min Rain = 0
KHA2 210207Z 17008KT 30/12 A301 RMK A01 T02960118  RH  033%=      5-min Rain = 0
KHA2 210208Z 17007KT 30/12 A301 RMK A01 T02950117  RH  033%=      5-min Rain = 0
KHA2 210209Z 17007KT 30/12 A301 RMK A01 T02950117  RH  033%=      5-min Rain = 0
KHA2 210210Z 17007KT 29/12 A301 RMK A01 T02940117  RH  034%=      5-min Rain = 0
KHA2 210211Z 17007KT 29/12 A301 RMK A01 T02930117  RH  034%=      5-min Rain = 0
KHA2 210212Z 17007KT 29/12 A301 RMK A01 T02930117  RH  034%=      5-min Rain = 0
KHA2 210213Z 17007KT 29/12 A301 RMK A01 T02920117  RH  034%=      5-min Rain = 0
KHA2 210214Z 17007KT 29/12 A301 RMK A01 T02920117  RH  034%=      5-min Rain = 0
KHA2 210215Z 17007KT 29/12 A301 RMK A01 T02910117  RH  034%=      5-min Rain = 0
KHA2 210216Z 17007KT 29/12 A301 RMK A01 T02910117  RH  034%=      5-min Rain = 0
KHA2 210217Z 17007KT 29/12 A301 RMK A01 T02900117  RH  034%=      5-min Rain = 0
KHA2 210218Z 16007KT 29/12 A301 RMK A01 T02890117  RH  034%=      5-min Rain = 0
KHA2 210219Z 16008KT 29/12 A301 RMK A01 T02880117  RH  035%=      5-min Rain = 0
KHA2 210220Z 16008KT 29/12 A301 RMK A01 T02870116  RH  035%=      5-min Rain = 0
KHA2 210221Z 16008KT 29/12 A301 RMK A01 T02860116  RH  035%=      5-min Rain = 0
KHA2 210222Z 16008KT 29/12 A301 RMK A01 T02850115  RH  035%=      5-min Rain = 0
KHA2 210223Z 16008KT 28/12 A301 RMK A01 T02840115  RH  035%=      5-min Rain = 0
KHA2 210224Z 16008KT 28/11 A301 RMK A01 T02830114  RH  035%=      5-min Rain = 0
KHA2 210225Z 16007KT 28/11 A301 RMK A01 T02820114  RH  035%=      5-min Rain = 0
KHA2 210226Z 16007KT 28/11 A301 RMK A01 T02810114  RH  035%=      5-min Rain = 0
KHA2 210227Z 16007KT 28/11 A301 RMK A01 T02800114  RH  036%=      5-min Rain = 0
KHA2 210228Z 16007KT 28/11 A301 RMK A01 T02790114  RH  036%=      5-min Rain = 0
KHA2 210229Z 15007KT 28/11 A301 RMK A01 T02780113  RH  036%=      5-min Rain = 0
KHA2 210230Z 14008KT 28/11 A3011 RMK A01 T02760113  RH  036%=      5-min Rain = 0
KHA2 210231Z 15009KT 27/11 A301 RMK A01 T02740113  RH  037%=      5-min Rain = 0
KHA2 210232Z 16008KT 27/11 A3011 RMK A01 T02730114  RH  037%=      5-min Rain = 0
KHA2 210233Z 16007KT 27/12 A3011 RMK A01 T02740115  RH  037%=      5-min Rain = 0
KHA2 210234Z 15008KT 28/12 A3011 RMK A01 T02750115  RH  037%=      5-min Rain = 0
KHA2 210235Z 15008KT 28/12 A3011 RMK A01 T02760116  RH  037%=      5-min Rain = 0
KHA2 210236Z 15007KT 28/12 A3011 RMK A01 T02760115  RH  037%=      5-min Rain = 0
KHA2 210237Z 15008KT 28/12 A3011 RMK A01 T02760115  RH  037%=      5-min Rain = 0
KHA2 210238Z 15008KT 28/12 A3011 RMK A01 T02750115  RH  037%=      5-min Rain = 0
KHA2 210239Z 15008KT 27/12 A3011 RMK A01 T02740115  RH  037%=      5-min Rain = 0
KHA2 210240Z 15009KT 27/11 A3011 RMK A01 T02730114  RH  037%=      5-min Rain = 0
KHA2 210241Z 14011G16KT 27/11 A3011 RMK A01 T02730114  RH  037%=      5-min Rain = 0
KHA2 210242Z 14013KT 27/12 A3011 RMK A01 T02730117  RH  038%=      5-min Rain = 0
KHA2 210243Z 14013KT 28/12 A3011 RMK A01 T02780121  RH  038%=      5-min Rain = 0
KHA2 210244Z 14010KT 28/12 A3011 RMK A01 T02830122  RH  037%=      5-min Rain = 0
KHA2 210245Z 14009KT 28/12 A3011 RMK A01 T02840121  RH  037%=      5-min Rain = 0
KHA2 210246Z 14009KT 28/12 A3011 RMK A01 T02840121  RH  036%=      5-min Rain = 0
KHA2 210247Z 14010KT 28/12 A3011 RMK A01 T02830120  RH  037%=      5-min Rain = 0
KHA2 210248Z 14008KT 28/12 A3011 RMK A01 T02830121  RH  037%=      5-min Rain = 0
KHA2 210249Z 15008KT 28/12 A3011 RMK A01 T02820121  RH  037%=      5-min Rain = 0
KHA2 210250Z 15007KT 28/12 A3011 RMK A01 T02820121  RH  037%=      5-min Rain = 0
KHA2 210251Z 15007KT 28/12 A3011 RMK A01 T02800121  RH  037%=      5-min Rain = 0
KHA2 210252Z 15007KT 28/12 A3011 RMK A01 T02790121  RH  038%=      5-min Rain = 0
KHA2 210253Z 15007KT 28/12 A3011 RMK A01 T02770120  RH  038%=      5-min Rain = 0
KHA2 210254Z 15007KT 28/12 A3011 RMK A01 T02750121  RH  038%=      5-min Rain = 0
KHA2 210255Z 15008KT 27/12 A3011 RMK A01 T02740121  RH  039%=      5-min Rain = 0
KHA2 210256Z 14008KT 27/12 A3011 RMK A01 T02730122  RH  039%=      5-min Rain = 0
KHA2 210257Z 14008KT 27/12 A3011 RMK A01 T02730123  RH  039%=      5-min Rain = 0
KHA2 210258Z 14008KT 27/12 A3011 RMK A01 T02730123  RH  039%=      5-min Rain = 0
KHA2 210259Z 14009KT 27/12 A3011 RMK A01 T02730124  RH  040%=      5-min Rain = 0
KHA2 210300Z 15009KT 27/13 A3011 RMK A01 T02730125  RH  040%=      5-min Rain = 0
KHA2 210301Z 15009KT 27/13 A3011 RMK A01 T02740126  RH  040%=      5-min Rain = 0
KHA2 210302Z 15009KT 27/13 A3011 RMK A01 T02740126  RH  040%=      5-min Rain = 0
KHA2 210303Z 15009KT 27/13 A3011 RMK A01 T02730127  RH  040%=      5-min Rain = 0
KHA2 210304Z 15009KT 27/13 A3011 RMK A01 T02740128  RH  040%=      5-min Rain = 0
KHA2 210305Z 15008KT 27/13 A3011 RMK A01 T02740128  RH  041%=      5-min Rain = 0
KHA2 210306Z 15009KT 27/13 A3011 RMK A01 T02740128  RH  041%=      5-min Rain = 0
KHA2 210307Z 15009KT 27/13 A3011 RMK A01 T02740129  RH  041%=      5-min Rain = 0
KHA2 210308Z 15009KT 27/13 A3011 RMK A01 T02740129  RH  041%=      5-min Rain = 0
KHA2 210309Z 15010KT 27/13 A3011 RMK A01 T02740130  RH  041%=      5-min Rain = 0
KHA2 210310Z 15010KT 28/13 A3011 RMK A01 T02750131  RH  041%=      5-min Rain = 0
KHA2 210311Z 16010KT 28/13 A3011 RMK A01 T02750131  RH  041%=      5-min Rain = 0
KHA2 210312Z 16011KT 28/13 A3011 RMK A01 T02750132  RH  041%=      5-min Rain = 0
KHA2 210313Z 16010KT 28/13 A3011 RMK A01 T02750132  RH  041%=      5-min Rain = 0
KHA2 210314Z 16011KT 28/13 A3011 RMK A01 T02750132  RH  041%=      5-min Rain = 0
KHA2 210315Z 16010KT 28/13 A3011 RMK A01 T02750132  RH  041%=      5-min Rain = 0
KHA2 210316Z 16010KT 28/13 A3011 RMK A01 T02750133  RH  042%=      5-min Rain = 0
KHA2 210317Z 16011KT 28/13 A3011 RMK A01 T02750134  RH  042%=      5-min Rain = 0
KHA2 210318Z 16011KT 28/13 A3011 RMK A01 T02750134  RH  042%=      5-min Rain = 0
KHA2 210319Z 16011KT 28/13 A3011 RMK A01 T02750134  RH  042%=      5-min Rain = 0
KHA2 210320Z 16011KT 28/14 A3011 RMK A01 T02750135  RH  042%=      5-min Rain = 0
KHA2 210321Z 16010KT 28/14 A3011 RMK A01 T02750136  RH  042%=      5-min Rain = 0
KHA2 210322Z 16011KT 28/14 A3011 RMK A01 T02750136  RH  042%=      5-min Rain = 0
KHA2 210323Z 16010KT 27/14 A3011 RMK A01 T02740136  RH  043%=      5-min Rain = 0
KHA2 210324Z 16011KT 27/14 A3011 RMK A01 T02740137  RH  043%=      5-min Rain = 0
KHA2 210325Z 16010KT 27/14 A3011 RMK A01 T02740137  RH  043%=      5-min Rain = 0
KHA2 210326Z 16011KT 27/14 A3011 RMK A01 T02740137  RH  043%=      5-min Rain = 0
KHA2 210327Z 16011KT 27/14 A3011 RMK A01 T02740137  RH  043%=      5-min Rain = 0
KHA2 210328Z 16010KT 27/14 A3011 RMK A01 T02740137  RH  043%=      5-min Rain = 0
KHA2 210329Z 16011KT 27/14 A3011 RMK A01 T02730137  RH  043%=      5-min Rain = 0
KHA2 210330Z 16011KT 27/14 A3011 RMK A01 T02740137  RH  043%=      5-min Rain = 0
KHA2 210331Z 16010KT 27/14 A3011 RMK A01 T02740137  RH  043%=      5-min Rain = 0
KHA2 210332Z 16010KT 27/14 A3011 RMK A01 T02740137  RH  043%=      5-min Rain = 0
KHA2 210333Z 16011KT 27/14 A3011 RMK A01 T02730136  RH  043%=      5-min Rain = 0
KHA2 210334Z 16011KT 27/14 A3011 RMK A01 T02730137  RH  043%=      5-min Rain = 0
KHA2 210335Z 16011KT 27/14 A3011 RMK A01 T02730136  RH  043%=      5-min Rain = 0
KHA2 210336Z 16010KT 27/14 A3011 RMK A01 T02730136  RH  043%=      5-min Rain = 0
KHA2 210337Z 16011KT 27/14 A3011 RMK A01 T02730136  RH  043%=      5-min Rain = 0
KHA2 210338Z 16011KT 27/14 A3011 RMK A01 T02720136  RH  043%=      5-min Rain = 0
KHA2 210339Z 16010KT 27/14 A3011 RMK A01 T02720136  RH  043%=      5-min Rain = 0
KHA2 210340Z 16010KT 27/14 A3011 RMK A01 T02720136  RH  043%=      5-min Rain = 0
KHA2 210341Z 16010KT 27/14 A3011 RMK A01 T02720136  RH  043%=      5-min Rain = 0
KHA2 210342Z 16010KT 27/14 A3011 RMK A01 T02720136  RH  043%=      5-min Rain = 0
KHA2 210343Z 16010KT 27/14 A3011 RMK A01 T02710136  RH  043%=      5-min Rain = 0
KHA2 210344Z 16010KT 27/14 A3011 RMK A01 T02710136  RH  043%=      5-min Rain = 0
KHA2 210345Z 16010KT 27/14 A3011 RMK A01 T02710136  RH  043%=      5-min Rain = 0
KHA2 210346Z 16010KT 27/14 A3011 RMK A01 T02710136  RH  043%=      5-min Rain = 0
KHA2 210347Z 16011KT 27/14 A3011 RMK A01 T02700136  RH  044%=      5-min Rain = 0
KHA2 210348Z 16011KT 27/14 A3011 RMK A01 T02710137  RH  044%=      5-min Rain = 0
KHA2 210349Z 16011KT 27/14 A3011 RMK A01 T02710136  RH  043%=      5-min Rain = 0
KHA2 210350Z 16010KT 27/14 A3011 RMK A01 T02710136  RH  043%=      5-min Rain = 0
KHA2 210351Z 16011KT 27/14 A3011 RMK A01 T02720137  RH  043%=      5-min Rain = 0
KHA2 210352Z 16010KT 27/14 A3011 RMK A01 T02720137  RH  043%=      5-min Rain = 0
KHA2 210353Z 16011KT 27/14 A3011 RMK A01 T02720137  RH  043%=      5-min Rain = 0
KHA2 210354Z 16012KT 27/14 A3011 RMK A01 T02720137  RH  043%=      5-min Rain = 0
KHA2 210355Z 16012KT 27/14 A3011 RMK A01 T02730137  RH  043%=      5-min Rain = 0
KHA2 210356Z 16011KT 27/14 A3011 RMK A01 T02740136  RH  043%=      5-min Rain = 0
KHA2 210357Z 16011KT 27/14 A3011 RMK A01 T02740136  RH  043%=      5-min Rain = 0
KHA2 210358Z 16011KT 27/14 A3011 RMK A01 T02740136  RH  043%=      5-min Rain = 0
KHA2 210359Z 16011KT 27/14 A3011 RMK A01 T02740136  RH  043%=      5-min Rain = 0
KHA2 210400Z 16011KT 27/14 A3011 RMK A01 T02730135  RH  043%=      5-min Rain = 0
KHA2 210401Z 16012KT 27/14 A3011 RMK A01 T02730135  RH  043%=      5-min Rain = 0
KHA2 210402Z 16012KT 27/14 A3011 RMK A01 T02740135  RH  042%=      5-min Rain = 0
KHA2 210403Z 16011KT 27/14 A3011 RMK A01 T02740135  RH  042%=      5-min Rain = 0
KHA2 210404Z 16012KT 28/14 A3011 RMK A01 T02750135  RH  042%=      5-min Rain = 0
KHA2 210405Z 16012KT 27/13 A3011 RMK A01 T02740134  RH  042%=      5-min Rain = 0
KHA2 210406Z 16012KT 28/13 A3011 RMK A01 T02750134  RH  042%=      5-min Rain = 0
KHA2 210407Z 16013KT 28/13 A3011 RMK A01 T02750134  RH  042%=      5-min Rain = 0
KHA2 210408Z 16013KT 28/13 A3011 RMK A01 T02760134  RH  042%=      5-min Rain = 0
KHA2 210409Z 16012KT 28/13 A3011 RMK A01 T02770134  RH  041%=      5-min Rain = 0
KHA2 210410Z 16012KT 28/13 A3011 RMK A01 T02770134  RH  041%=      5-min Rain = 0
KHA2 210411Z 16012KT 28/13 A3011 RMK A01 T02770133  RH  041%=      5-min Rain = 0
KHA2 210412Z 16013KT 28/13 A3011 RMK A01 T02770133  RH  041%=      5-min Rain = 0
KHA2 210413Z 17013KT 28/13 A3011 RMK A01 T02780133  RH  041%=      5-min Rain = 0
KHA2 210414Z 16011KT 28/13 A3011 RMK A01 T02790133  RH  040%=      5-min Rain = 0
KHA2 210415Z 17012KT 28/13 A3011 RMK A01 T02790132  RH  040%=      5-min Rain = 0
KHA2 210416Z 17013G18KT 28/13 A3011 RMK A01 T02790132  RH  040%=      5-min Rain = 0
KHA2 210417Z 17014KT 28/13 A3011 RMK A01 T02800132  RH  040%=      5-min Rain = 0
KHA2 210418Z 17014KT 28/13 A3011 RMK A01 T02810131  RH  040%=      5-min Rain = 0
KHA2 210419Z 17014KT 28/13 A3011 RMK A01 T02810131  RH  040%=      5-min Rain = 0
KHA2 210420Z 16012KT 28/13 A3011 RMK A01 T02820131  RH  039%=      5-min Rain = 0
KHA2 210421Z 17012KT 28/13 A3011 RMK A01 T02820130  RH  039%=      5-min Rain = 0
KHA2 210422Z 17013KT 28/13 A3011 RMK A01 T02810130  RH  039%=      5-min Rain = 0
KHA2 210423Z 17013KT 28/13 A3011 RMK A01 T02810130  RH  039%=      5-min Rain = 0
KHA2 210424Z 17014KT 28/13 A3011 RMK A01 T02810130  RH  039%=      5-min Rain = 0
KHA2 210425Z 17013KT 28/13 A3011 RMK A01 T02820129  RH  039%=      5-min Rain = 0
KHA2 210426Z 17014KT 28/13 A3011 RMK A01 T02820129  RH  039%=      5-min Rain = 0
KHA2 210427Z 17015KT 28/13 A3011 RMK A01 T02820129  RH  039%=      5-min Rain = 0
KHA2 210428Z 16013KT 28/13 A3011 RMK A01 T02830129  RH  039%=      5-min Rain = 0
KHA2 210429Z 17015KT 28/13 A3011 RMK A01 T02840129  RH  038%=      5-min Rain = 0
KHA2 210430Z 17015KT 29/13 A3011 RMK A01 T02850128  RH  038%=      5-min Rain = 0
KHA2 210431Z 17016KT 29/13 A3011 RMK A01 T02850128  RH  038%=      5-min Rain = 0
KHA2 210432Z 16014G19KT 29/13 A3011 RMK A01 T02860128  RH  038%=      5-min Rain = 0
KHA2 210433Z 17016KT 29/13 A3011 RMK A01 T02870128  RH  038%=      5-min Rain = 0
KHA2 210434Z 16016KT 29/13 A3011 RMK A01 T02870127  RH  037%=      5-min Rain = 0
KHA2 210435Z 17015KT 29/13 A3011 RMK A01 T02870128  RH  037%=      5-min Rain = 0
KHA2 210436Z 17015KT 29/13 A3011 RMK A01 T02870127  RH  037%=      5-min Rain = 0
KHA2 210437Z 17015KT 29/13 A3011 RMK A01 T02870128  RH  037%=      5-min Rain = 0
KHA2 210438Z 16015KT 29/13 A3011 RMK A01 T02860128  RH  038%=      5-min Rain = 0
KHA2 210439Z 17014KT 29/13 A3011 RMK A01 T02860128  RH  038%=      5-min Rain = 0
KHA2 210440Z 16015KT 29/13 A3011 RMK A01 T02850128  RH  038%=      5-min Rain = 0
KHA2 210441Z 16014KT 29/13 A3011 RMK A01 T02850128  RH  038%=      5-min Rain = 0
KHA2 210442Z 17015KT 29/13 A3011 RMK A01 T02850129  RH  038%=      5-min Rain = 0
KHA2 210443Z 16015KT 28/13 A3011 RMK A01 T02840129  RH  038%=      5-min Rain = 0
KHA2 210444Z 17014KT 28/13 A3011 RMK A01 T02840130  RH  039%=      5-min Rain = 0
KHA2 210445Z 16014KT 28/13 A3011 RMK A01 T02840131  RH  039%=      5-min Rain = 0
KHA2 210446Z 17014KT 28/13 A3011 RMK A01 T02840131  RH  039%=      5-min Rain = 0
KHA2 210447Z 16014KT 28/13 A3011 RMK A01 T02840131  RH  039%=      5-min Rain = 0
KHA2 210448Z 16014KT 28/13 A3011 RMK A01 T02830131  RH  039%=      5-min Rain = 0
KHA2 210449Z 16015KT 28/13 A3011 RMK A01 T02830132  RH  039%=      5-min Rain = 0
KHA2 210450Z 17016KT 28/13 A3011 RMK A01 T02830133  RH  039%=      5-min Rain = 0
KHA2 210451Z 17015KT 28/13 A3011 RMK A01 T02830133  RH  040%=      5-min Rain = 0
KHA2 210452Z 17015KT 28/13 A3011 RMK A01 T02830133  RH  040%=      5-min Rain = 0
KHA2 210453Z 17014KT 28/13 A3011 RMK A01 T02830134  RH  040%=      5-min Rain = 0
KHA2 210454Z 17014KT 28/13 A3011 RMK A01 T02830134  RH  040%=      5-min Rain = 0
KHA2 210455Z 17016KT 28/13 A3011 RMK A01 T02820134  RH  040%=      5-min Rain = 0
KHA2 210456Z 17016KT 28/13 A3011 RMK A01 T02830134  RH  040%=      5-min Rain = 0
KHA2 210457Z 17017KT 28/13 A3011 RMK A01 T02820134  RH  040%=      5-min Rain = 0
KHA2 210458Z 17015KT 28/13 A3011 RMK A01 T02820134  RH  040%=      5-min Rain = 0
KHA2 210459Z 17016KT 28/13 A3011 RMK A01 T02820134  RH  040%=      5-min Rain = 0

Page generated in 0.0818 seconds.